<?xml version="1.0" encoding="UTF-8" standalone="no" ?>
<gpx xmlns="http://www.topografix.com/GPX/1/1" xmlns:xsi="http://www.w3.org/2001/XMLSchema-instance" xsi:schemaLocation="http://www.topografix.com/GPX/1/1 http://www.topografix.com/GPX/1/1/gpx.xsd" version="1.1" creator="VisuGPX - https://www.visugpx.com">
  <metadata>
    <name>Coteaux 60 - 21 mars 21</name>
  </metadata>
  <trk>
    <name><![CDATA[Coteaux 60 mars 21]]></name>
    <trkseg>
      <trkpt lat="43.59276" lon="1.44436">
        <ele>144.39872741699</ele>
        <time>2021-03-18T20:51:37.000Z</time>
      </trkpt>
      <trkpt lat="43.59276" lon="1.44436">
        <ele>144.39842224121</ele>
        <time>2021-03-18T20:51:37.000Z</time>
      </trkpt>
      <trkpt lat="43.59282" lon="1.4445">
        <ele>144.04693603516</ele>
        <time>2021-03-18T20:51:37.002Z</time>
      </trkpt>
      <trkpt lat="43.59268" lon="1.44453">
        <ele>144.9094543457</ele>
        <time>2021-03-18T20:51:37.007Z</time>
      </trkpt>
      <trkpt lat="43.59262" lon="1.44453">
        <ele>145.29618835449</ele>
        <time>2021-03-18T20:51:37.013Z</time>
      </trkpt>
      <trkpt lat="43.59208" lon="1.44462">
        <ele>148.94325256348</ele>
        <time>2021-03-18T20:51:37.029Z</time>
      </trkpt>
      <trkpt lat="43.5919" lon="1.44447">
        <ele>149.86647033691</ele>
        <time>2021-03-18T20:51:37.048Z</time>
      </trkpt>
      <trkpt lat="43.5918" lon="1.44443">
        <ele>149.98231506348</ele>
        <time>2021-03-18T20:51:37.069Z</time>
      </trkpt>
      <trkpt lat="43.59171" lon="1.44444">
        <ele>149.94369506836</ele>
        <time>2021-03-18T20:51:37.092Z</time>
      </trkpt>
      <trkpt lat="43.59135" lon="1.44444">
        <ele>148.57080078125</ele>
        <time>2021-03-18T20:51:37.122Z</time>
      </trkpt>
      <trkpt lat="43.59051" lon="1.4445">
        <ele>144.50393676758</ele>
        <time>2021-03-18T20:51:37.167Z</time>
      </trkpt>
      <trkpt lat="43.59003" lon="1.44458">
        <ele>145.99215698242</ele>
        <time>2021-03-18T20:51:37.221Z</time>
      </trkpt>
      <trkpt lat="43.59003" lon="1.44458">
        <ele>145.9924621582</ele>
        <time>2021-03-18T20:51:37.275Z</time>
      </trkpt>
      <trkpt lat="43.58967" lon="1.44455">
        <ele>146.44242858887</ele>
        <time>2021-03-18T20:51:37.335Z</time>
      </trkpt>
      <trkpt lat="43.58854" lon="1.44443">
        <ele>147.31661987305</ele>
        <time>2021-03-18T20:51:37.416Z</time>
      </trkpt>
      <trkpt lat="43.58854" lon="1.44443">
        <ele>147.31600952148</ele>
        <time>2021-03-18T20:51:37.497Z</time>
      </trkpt>
      <trkpt lat="43.58847" lon="1.44442">
        <ele>146.79695129395</ele>
        <time>2021-03-18T20:51:37.579Z</time>
      </trkpt>
      <trkpt lat="43.58835" lon="1.4444">
        <ele>145.90185546875</ele>
        <time>2021-03-18T20:51:37.663Z</time>
      </trkpt>
      <trkpt lat="43.58835" lon="1.4444">
        <ele>145.90185546875</ele>
        <time>2021-03-18T20:51:37.747Z</time>
      </trkpt>
      <trkpt lat="43.58592" lon="1.44426">
        <ele>148.7809753418</ele>
        <time>2021-03-18T20:51:37.875Z</time>
      </trkpt>
      <trkpt lat="43.58592" lon="1.44426">
        <ele>148.78128051758</ele>
        <time>2021-03-18T20:51:38.003Z</time>
      </trkpt>
      <trkpt lat="43.58517" lon="1.44422">
        <ele>148</ele>
        <time>2021-03-18T20:51:38.145Z</time>
      </trkpt>
      <trkpt lat="43.58502" lon="1.44421">
        <ele>148.20681762695</ele>
        <time>2021-03-18T20:51:38.290Z</time>
      </trkpt>
      <trkpt lat="43.58502" lon="1.44421">
        <ele>148.20681762695</ele>
        <time>2021-03-18T20:51:38.435Z</time>
      </trkpt>
      <trkpt lat="43.584" lon="1.44417">
        <ele>147.25492858887</ele>
        <time>2021-03-18T20:51:38.598Z</time>
      </trkpt>
      <trkpt lat="43.5839" lon="1.44418">
        <ele>147.13151550293</ele>
        <time>2021-03-18T20:51:38.763Z</time>
      </trkpt>
      <trkpt lat="43.58379" lon="1.44417">
        <ele>147.47872924805</ele>
        <time>2021-03-18T20:51:38.930Z</time>
      </trkpt>
      <trkpt lat="43.5829" lon="1.44411">
        <ele>146.08734130859</ele>
        <time>2021-03-18T20:51:39.113Z</time>
      </trkpt>
      <trkpt lat="43.5828" lon="1.4441">
        <ele>145.64137268066</ele>
        <time>2021-03-18T20:51:39.298Z</time>
      </trkpt>
      <trkpt lat="43.58225" lon="1.44402">
        <ele>145.98664855957</ele>
        <time>2021-03-18T20:51:39.493Z</time>
      </trkpt>
      <trkpt lat="43.58221" lon="1.44402">
        <ele>146.28219604492</ele>
        <time>2021-03-18T20:51:39.689Z</time>
      </trkpt>
      <trkpt lat="43.58214" lon="1.44399">
        <ele>146.74615478516</ele>
        <time>2021-03-18T20:51:39.886Z</time>
      </trkpt>
      <trkpt lat="43.58163" lon="1.44385">
        <ele>148.70606994629</ele>
        <time>2021-03-18T20:51:40.093Z</time>
      </trkpt>
      <trkpt lat="43.58163" lon="1.44385">
        <ele>148.70637512207</ele>
        <time>2021-03-18T20:51:40.300Z</time>
      </trkpt>
      <trkpt lat="43.58068" lon="1.44366">
        <ele>145.14270019531</ele>
        <time>2021-03-18T20:51:40.524Z</time>
      </trkpt>
      <trkpt lat="43.58002" lon="1.44353">
        <ele>143.54838562012</ele>
        <time>2021-03-18T20:51:40.760Z</time>
      </trkpt>
      <trkpt lat="43.57965" lon="1.44348">
        <ele>143.1622467041</ele>
        <time>2021-03-18T20:51:41.003Z</time>
      </trkpt>
      <trkpt lat="43.57918" lon="1.44338">
        <ele>141.96971130371</ele>
        <time>2021-03-18T20:51:41.255Z</time>
      </trkpt>
      <trkpt lat="43.57918" lon="1.44338">
        <ele>141.97001647949</ele>
        <time>2021-03-18T20:51:41.507Z</time>
      </trkpt>
      <trkpt lat="43.57823" lon="1.44315">
        <ele>144</ele>
        <time>2021-03-18T20:51:41.776Z</time>
      </trkpt>
      <trkpt lat="43.57817" lon="1.44306">
        <ele>144</ele>
        <time>2021-03-18T20:51:42.047Z</time>
      </trkpt>
      <trkpt lat="43.57769" lon="1.44284">
        <ele>142.9261932373</ele>
        <time>2021-03-18T20:51:42.327Z</time>
      </trkpt>
      <trkpt lat="43.57766" lon="1.44297">
        <ele>143.76631164551</ele>
        <time>2021-03-18T20:51:42.609Z</time>
      </trkpt>
      <trkpt lat="43.57744" lon="1.44291">
        <ele>143.82023620605</ele>
        <time>2021-03-18T20:51:42.895Z</time>
      </trkpt>
      <trkpt lat="43.57673" lon="1.44293">
        <ele>144.77809143066</ele>
        <time>2021-03-18T20:51:43.194Z</time>
      </trkpt>
      <trkpt lat="43.57624" lon="1.44301">
        <ele>143.50787353516</ele>
        <time>2021-03-18T20:51:43.502Z</time>
      </trkpt>
      <trkpt lat="43.57624" lon="1.44301">
        <ele>143.50756835938</ele>
        <time>2021-03-18T20:51:43.810Z</time>
      </trkpt>
      <trkpt lat="43.57613" lon="1.44314">
        <ele>143.00358581543</ele>
        <time>2021-03-18T20:51:44.121Z</time>
      </trkpt>
      <trkpt lat="43.57602" lon="1.44409">
        <ele>141.17240905762</ele>
        <time>2021-03-18T20:51:44.444Z</time>
      </trkpt>
      <trkpt lat="43.57567" lon="1.44524">
        <ele>142.91366577148</ele>
        <time>2021-03-18T20:51:44.784Z</time>
      </trkpt>
      <trkpt lat="43.57567" lon="1.44524">
        <ele>142.91366577148</ele>
        <time>2021-03-18T20:51:45.124Z</time>
      </trkpt>
      <trkpt lat="43.57553" lon="1.44581">
        <ele>142.0796661377</ele>
        <time>2021-03-18T20:51:45.472Z</time>
      </trkpt>
      <trkpt lat="43.57536" lon="1.44612">
        <ele>143.1598815918</ele>
        <time>2021-03-18T20:51:45.825Z</time>
      </trkpt>
      <trkpt lat="43.5753" lon="1.44611">
        <ele>143.09851074219</ele>
        <time>2021-03-18T20:51:46.179Z</time>
      </trkpt>
      <trkpt lat="43.5753" lon="1.44611">
        <ele>143.09912109375</ele>
        <time>2021-03-18T20:51:46.533Z</time>
      </trkpt>
      <trkpt lat="43.57503" lon="1.44591">
        <ele>144.94650268555</ele>
        <time>2021-03-18T20:51:46.893Z</time>
      </trkpt>
      <trkpt lat="43.57489" lon="1.44582">
        <ele>146.42779541016</ele>
        <time>2021-03-18T20:51:47.255Z</time>
      </trkpt>
      <trkpt lat="43.57491" lon="1.44575">
        <ele>146.4268951416</ele>
        <time>2021-03-18T20:51:47.618Z</time>
      </trkpt>
      <trkpt lat="43.57491" lon="1.44575">
        <ele>146.42779541016</ele>
        <time>2021-03-18T20:51:47.981Z</time>
      </trkpt>
      <trkpt lat="43.57534" lon="1.44453">
        <ele>143.56042480469</ele>
        <time>2021-03-18T20:51:48.362Z</time>
      </trkpt>
      <trkpt lat="43.57555" lon="1.44359">
        <ele>144.40757751465</ele>
        <time>2021-03-18T20:51:48.756Z</time>
      </trkpt>
      <trkpt lat="43.57553" lon="1.44344">
        <ele>145.2082824707</ele>
        <time>2021-03-18T20:51:49.152Z</time>
      </trkpt>
      <trkpt lat="43.57534" lon="1.44319">
        <ele>148.41510009766</ele>
        <time>2021-03-18T20:51:49.553Z</time>
      </trkpt>
      <trkpt lat="43.57525" lon="1.4432">
        <ele>149.48713684082</ele>
        <time>2021-03-18T20:51:49.956Z</time>
      </trkpt>
      <trkpt lat="43.57447" lon="1.44331">
        <ele>154.09118652344</ele>
        <time>2021-03-18T20:51:50.373Z</time>
      </trkpt>
      <trkpt lat="43.57382" lon="1.44331">
        <ele>156.11964416504</ele>
        <time>2021-03-18T20:51:50.802Z</time>
      </trkpt>
      <trkpt lat="43.57353" lon="1.44334">
        <ele>160.4182434082</ele>
        <time>2021-03-18T20:51:51.236Z</time>
      </trkpt>
      <trkpt lat="43.57307" lon="1.44353">
        <ele>165.83673095703</ele>
        <time>2021-03-18T20:51:51.679Z</time>
      </trkpt>
      <trkpt lat="43.57307" lon="1.44353">
        <ele>165.8355255127</ele>
        <time>2021-03-18T20:51:52.122Z</time>
      </trkpt>
      <trkpt lat="43.57196" lon="1.44398">
        <ele>175.91175842285</ele>
        <time>2021-03-18T20:51:52.586Z</time>
      </trkpt>
      <trkpt lat="43.57196" lon="1.44398">
        <ele>175.91355895996</ele>
        <time>2021-03-18T20:51:53.050Z</time>
      </trkpt>
      <trkpt lat="43.57148" lon="1.44451">
        <ele>179.33100891113</ele>
        <time>2021-03-18T20:51:53.525Z</time>
      </trkpt>
      <trkpt lat="43.57074" lon="1.44531">
        <ele>182.0724029541</ele>
        <time>2021-03-18T20:51:54.017Z</time>
      </trkpt>
      <trkpt lat="43.57061" lon="1.44539">
        <ele>182.85578918457</ele>
        <time>2021-03-18T20:51:54.512Z</time>
      </trkpt>
      <trkpt lat="43.57038" lon="1.44538">
        <ele>185.24687194824</ele>
        <time>2021-03-18T20:51:55.011Z</time>
      </trkpt>
      <trkpt lat="43.57038" lon="1.44538">
        <ele>185.24778747559</ele>
        <time>2021-03-18T20:51:55.510Z</time>
      </trkpt>
      <trkpt lat="43.57018" lon="1.44535">
        <ele>188.53224182129</ele>
        <time>2021-03-18T20:51:56.013Z</time>
      </trkpt>
      <trkpt lat="43.57018" lon="1.44535">
        <ele>188.53373718262</ele>
        <time>2021-03-18T20:51:56.516Z</time>
      </trkpt>
      <trkpt lat="43.56971" lon="1.44559">
        <ele>194.43742370605</ele>
        <time>2021-03-18T20:51:57.028Z</time>
      </trkpt>
      <trkpt lat="43.56946" lon="1.44587">
        <ele>192.27296447754</ele>
        <time>2021-03-18T20:51:57.546Z</time>
      </trkpt>
      <trkpt lat="43.56946" lon="1.44587">
        <ele>192.27386474609</ele>
        <time>2021-03-18T20:51:58.064Z</time>
      </trkpt>
      <trkpt lat="43.56942" lon="1.44591">
        <ele>192.11851501465</ele>
        <time>2021-03-18T20:51:58.583Z</time>
      </trkpt>
      <trkpt lat="43.56942" lon="1.44591">
        <ele>192.1194152832</ele>
        <time>2021-03-18T20:51:59.102Z</time>
      </trkpt>
      <trkpt lat="43.56906" lon="1.44635">
        <ele>192.98022460938</ele>
        <time>2021-03-18T20:51:59.629Z</time>
      </trkpt>
      <trkpt lat="43.56864" lon="1.44658">
        <ele>197.0401763916</ele>
        <time>2021-03-18T20:52:00.165Z</time>
      </trkpt>
      <trkpt lat="43.56819" lon="1.4467">
        <ele>203.61895751953</ele>
        <time>2021-03-18T20:52:00.709Z</time>
      </trkpt>
      <trkpt lat="43.56819" lon="1.4467">
        <ele>203.62016296387</ele>
        <time>2021-03-18T20:52:01.253Z</time>
      </trkpt>
      <trkpt lat="43.56808" lon="1.44673">
        <ele>204.30372619629</ele>
        <time>2021-03-18T20:52:01.799Z</time>
      </trkpt>
      <trkpt lat="43.56771" lon="1.44686">
        <ele>207.86907958984</ele>
        <time>2021-03-18T20:52:02.352Z</time>
      </trkpt>
      <trkpt lat="43.56721" lon="1.44719">
        <ele>211.4206237793</ele>
        <time>2021-03-18T20:52:02.915Z</time>
      </trkpt>
      <trkpt lat="43.56713" lon="1.44723">
        <ele>211.40214538574</ele>
        <time>2021-03-18T20:52:03.480Z</time>
      </trkpt>
      <trkpt lat="43.56705" lon="1.4473">
        <ele>211.09384155273</ele>
        <time>2021-03-18T20:52:04.046Z</time>
      </trkpt>
      <trkpt lat="43.56701" lon="1.44724">
        <ele>212.09718322754</ele>
        <time>2021-03-18T20:52:04.613Z</time>
      </trkpt>
      <trkpt lat="43.56694" lon="1.44732">
        <ele>211.46939086914</ele>
        <time>2021-03-18T20:52:05.182Z</time>
      </trkpt>
      <trkpt lat="43.56649" lon="1.44733">
        <ele>213.4931640625</ele>
        <time>2021-03-18T20:52:05.759Z</time>
      </trkpt>
      <trkpt lat="43.56621" lon="1.44728">
        <ele>216.17562866211</ele>
        <time>2021-03-18T20:52:06.341Z</time>
      </trkpt>
      <trkpt lat="43.56586" lon="1.44721">
        <ele>220.8830871582</ele>
        <time>2021-03-18T20:52:06.930Z</time>
      </trkpt>
      <trkpt lat="43.56586" lon="1.44721">
        <ele>220.88249206543</ele>
        <time>2021-03-18T20:52:07.519Z</time>
      </trkpt>
      <trkpt lat="43.56574" lon="1.4472">
        <ele>222.29695129395</ele>
        <time>2021-03-18T20:52:08.110Z</time>
      </trkpt>
      <trkpt lat="43.56562" lon="1.4472">
        <ele>223.57209777832</ele>
        <time>2021-03-18T20:52:08.703Z</time>
      </trkpt>
      <trkpt lat="43.56562" lon="1.4472">
        <ele>223.57118225098</ele>
        <time>2021-03-18T20:52:09.296Z</time>
      </trkpt>
      <trkpt lat="43.56503" lon="1.44747">
        <ele>224.04727172852</ele>
        <time>2021-03-18T20:52:09.900Z</time>
      </trkpt>
      <trkpt lat="43.56388" lon="1.44864">
        <ele>231.87705993652</ele>
        <time>2021-03-18T20:52:10.530Z</time>
      </trkpt>
      <trkpt lat="43.56388" lon="1.44864">
        <ele>231.87646484375</ele>
        <time>2021-03-18T20:52:11.160Z</time>
      </trkpt>
      <trkpt lat="43.56382" lon="1.44867">
        <ele>232.10813903809</ele>
        <time>2021-03-18T20:52:11.792Z</time>
      </trkpt>
      <trkpt lat="43.56334" lon="1.44881">
        <ele>236.27458190918</ele>
        <time>2021-03-18T20:52:12.432Z</time>
      </trkpt>
      <trkpt lat="43.56275" lon="1.44867">
        <ele>239.04350280762</ele>
        <time>2021-03-18T20:52:13.083Z</time>
      </trkpt>
      <trkpt lat="43.56275" lon="1.44867">
        <ele>239.0438079834</ele>
        <time>2021-03-18T20:52:13.734Z</time>
      </trkpt>
      <trkpt lat="43.56193" lon="1.44808">
        <ele>240.46806335449</ele>
        <time>2021-03-18T20:52:14.402Z</time>
      </trkpt>
      <trkpt lat="43.56162" lon="1.44788">
        <ele>239.8274230957</ele>
        <time>2021-03-18T20:52:15.076Z</time>
      </trkpt>
      <trkpt lat="43.56162" lon="1.44788">
        <ele>239.82711791992</ele>
        <time>2021-03-18T20:52:15.750Z</time>
      </trkpt>
      <trkpt lat="43.56096" lon="1.44742">
        <ele>242.28927612305</ele>
        <time>2021-03-18T20:52:16.438Z</time>
      </trkpt>
      <trkpt lat="43.56092" lon="1.44738">
        <ele>242.52095031738</ele>
        <time>2021-03-18T20:52:17.127Z</time>
      </trkpt>
      <trkpt lat="43.56065" lon="1.44719">
        <ele>244.68290710449</ele>
        <time>2021-03-18T20:52:17.821Z</time>
      </trkpt>
      <trkpt lat="43.56021" lon="1.44693">
        <ele>245.04360961914</ele>
        <time>2021-03-18T20:52:18.524Z</time>
      </trkpt>
      <trkpt lat="43.56021" lon="1.44693">
        <ele>245.04360961914</ele>
        <time>2021-03-18T20:52:19.227Z</time>
      </trkpt>
      <trkpt lat="43.55992" lon="1.44685">
        <ele>245.43359375</ele>
        <time>2021-03-18T20:52:19.935Z</time>
      </trkpt>
      <trkpt lat="43.55992" lon="1.44685">
        <ele>245.43269348145</ele>
        <time>2021-03-18T20:52:20.643Z</time>
      </trkpt>
      <trkpt lat="43.55948" lon="1.44677">
        <ele>252.05491638184</ele>
        <time>2021-03-18T20:52:21.359Z</time>
      </trkpt>
      <trkpt lat="43.55855" lon="1.44699">
        <ele>258.20761108398</ele>
        <time>2021-03-18T20:52:22.093Z</time>
      </trkpt>
      <trkpt lat="43.55847" lon="1.44702">
        <ele>258.32345581055</ele>
        <time>2021-03-18T20:52:22.828Z</time>
      </trkpt>
      <trkpt lat="43.55847" lon="1.44702">
        <ele>258.32345581055</ele>
        <time>2021-03-18T20:52:23.563Z</time>
      </trkpt>
      <trkpt lat="43.55781" lon="1.44728">
        <ele>255.35565185547</ele>
        <time>2021-03-18T20:52:24.311Z</time>
      </trkpt>
      <trkpt lat="43.55773" lon="1.44732">
        <ele>254.96951293945</ele>
        <time>2021-03-18T20:52:25.060Z</time>
      </trkpt>
      <trkpt lat="43.55743" lon="1.44748">
        <ele>252.10386657715</ele>
        <time>2021-03-18T20:52:25.815Z</time>
      </trkpt>
      <trkpt lat="43.55723" lon="1.44752">
        <ele>250.04026794434</ele>
        <time>2021-03-18T20:52:26.574Z</time>
      </trkpt>
      <trkpt lat="43.55644" lon="1.44732">
        <ele>241.91949462891</ele>
        <time>2021-03-18T20:52:27.347Z</time>
      </trkpt>
      <trkpt lat="43.55624" lon="1.44727">
        <ele>240.25296020508</ele>
        <time>2021-03-18T20:52:28.124Z</time>
      </trkpt>
      <trkpt lat="43.55535" lon="1.44741">
        <ele>231.5537109375</ele>
        <time>2021-03-18T20:52:28.917Z</time>
      </trkpt>
      <trkpt lat="43.55468" lon="1.44777">
        <ele>230.05697631836</ele>
        <time>2021-03-18T20:52:29.723Z</time>
      </trkpt>
      <trkpt lat="43.55464" lon="1.44764">
        <ele>229.98475646973</ele>
        <time>2021-03-18T20:52:30.531Z</time>
      </trkpt>
      <trkpt lat="43.55406" lon="1.44838">
        <ele>220.6597442627</ele>
        <time>2021-03-18T20:52:31.354Z</time>
      </trkpt>
      <trkpt lat="43.55406" lon="1.44838">
        <ele>220.66156005859</ele>
        <time>2021-03-18T20:52:32.177Z</time>
      </trkpt>
      <trkpt lat="43.55464" lon="1.44764">
        <ele>229.98565673828</ele>
        <time>2021-03-18T20:52:33.014Z</time>
      </trkpt>
      <trkpt lat="43.55468" lon="1.44777">
        <ele>230.0581817627</ele>
        <time>2021-03-18T20:52:33.853Z</time>
      </trkpt>
      <trkpt lat="43.55381" lon="1.44892">
        <ele>219.31591796875</ele>
        <time>2021-03-18T20:52:34.714Z</time>
      </trkpt>
      <trkpt lat="43.5531" lon="1.45007">
        <ele>213.71043395996</ele>
        <time>2021-03-18T20:52:35.595Z</time>
      </trkpt>
      <trkpt lat="43.55306" lon="1.45013">
        <ele>213.58445739746</ele>
        <time>2021-03-18T20:52:36.477Z</time>
      </trkpt>
      <trkpt lat="43.55298" lon="1.45015">
        <ele>214.0484161377</ele>
        <time>2021-03-18T20:52:37.360Z</time>
      </trkpt>
      <trkpt lat="43.55293" lon="1.45011">
        <ele>214.58840942383</ele>
        <time>2021-03-18T20:52:38.244Z</time>
      </trkpt>
      <trkpt lat="43.55269" lon="1.44961">
        <ele>217.37080383301</ele>
        <time>2021-03-18T20:52:39.136Z</time>
      </trkpt>
      <trkpt lat="43.55238" lon="1.44911">
        <ele>219.60342407227</ele>
        <time>2021-03-18T20:52:40.037Z</time>
      </trkpt>
      <trkpt lat="43.55238" lon="1.44911">
        <ele>219.60433959961</ele>
        <time>2021-03-18T20:52:40.938Z</time>
      </trkpt>
      <trkpt lat="43.55106" lon="1.44772">
        <ele>229.76481628418</ele>
        <time>2021-03-18T20:52:41.869Z</time>
      </trkpt>
      <trkpt lat="43.55048" lon="1.44729">
        <ele>223.00759887695</ele>
        <time>2021-03-18T20:52:42.812Z</time>
      </trkpt>
      <trkpt lat="43.55005" lon="1.44851">
        <ele>231.80101013184</ele>
        <time>2021-03-18T20:52:43.773Z</time>
      </trkpt>
      <trkpt lat="43.55005" lon="1.44851">
        <ele>231.8016204834</ele>
        <time>2021-03-18T20:52:44.734Z</time>
      </trkpt>
      <trkpt lat="43.54961" lon="1.4498">
        <ele>233.65704345703</ele>
        <time>2021-03-18T20:52:45.714Z</time>
      </trkpt>
      <trkpt lat="43.54961" lon="1.44982">
        <ele>233.65704345703</ele>
        <time>2021-03-18T20:52:46.694Z</time>
      </trkpt>
      <trkpt lat="43.54926" lon="1.4515">
        <ele>230.27812194824</ele>
        <time>2021-03-18T20:52:47.698Z</time>
      </trkpt>
      <trkpt lat="43.54926" lon="1.4515">
        <ele>230.27781677246</ele>
        <time>2021-03-18T20:52:48.702Z</time>
      </trkpt>
      <trkpt lat="43.5485" lon="1.45259">
        <ele>234.62718200684</ele>
        <time>2021-03-18T20:52:49.725Z</time>
      </trkpt>
      <trkpt lat="43.54851" lon="1.45295">
        <ele>237.50276184082</ele>
        <time>2021-03-18T20:52:50.753Z</time>
      </trkpt>
      <trkpt lat="43.54843" lon="1.45363">
        <ele>238.78179931641</ele>
        <time>2021-03-18T20:52:51.790Z</time>
      </trkpt>
      <trkpt lat="43.5484" lon="1.45377">
        <ele>238.20014953613</ele>
        <time>2021-03-18T20:52:52.829Z</time>
      </trkpt>
      <trkpt lat="43.54828" lon="1.4538">
        <ele>238.037109375</ele>
        <time>2021-03-18T20:52:53.870Z</time>
      </trkpt>
      <trkpt lat="43.54825" lon="1.45378">
        <ele>237.99700927734</ele>
        <time>2021-03-18T20:52:54.912Z</time>
      </trkpt>
      <trkpt lat="43.54704" lon="1.45315">
        <ele>229.94132995605</ele>
        <time>2021-03-18T20:52:55.978Z</time>
      </trkpt>
      <trkpt lat="43.54666" lon="1.45308">
        <ele>228.00672912598</ele>
        <time>2021-03-18T20:52:57.051Z</time>
      </trkpt>
      <trkpt lat="43.54645" lon="1.45293">
        <ele>225.92222595215</ele>
        <time>2021-03-18T20:52:58.128Z</time>
      </trkpt>
      <trkpt lat="43.54638" lon="1.45277">
        <ele>225.02005004883</ele>
        <time>2021-03-18T20:52:59.207Z</time>
      </trkpt>
      <trkpt lat="43.54622" lon="1.45277">
        <ele>225.02005004883</ele>
        <time>2021-03-18T20:53:00.289Z</time>
      </trkpt>
      <trkpt lat="43.54601" lon="1.45241">
        <ele>227.71473693848</ele>
        <time>2021-03-18T20:53:01.377Z</time>
      </trkpt>
      <trkpt lat="43.54601" lon="1.45241">
        <ele>227.7144317627</ele>
        <time>2021-03-18T20:53:02.465Z</time>
      </trkpt>
      <trkpt lat="43.5453" lon="1.45184">
        <ele>229.97041320801</ele>
        <time>2021-03-18T20:53:03.568Z</time>
      </trkpt>
      <trkpt lat="43.5453" lon="1.45184">
        <ele>229.97010803223</ele>
        <time>2021-03-18T20:53:04.671Z</time>
      </trkpt>
      <trkpt lat="43.54396" lon="1.45116">
        <ele>226</ele>
        <time>2021-03-18T20:53:05.800Z</time>
      </trkpt>
      <trkpt lat="43.54347" lon="1.45092">
        <ele>226.06927490234</ele>
        <time>2021-03-18T20:53:06.939Z</time>
      </trkpt>
      <trkpt lat="43.54306" lon="1.45054">
        <ele>231.13310241699</ele>
        <time>2021-03-18T20:53:08.087Z</time>
      </trkpt>
      <trkpt lat="43.54266" lon="1.45003">
        <ele>235.93846130371</ele>
        <time>2021-03-18T20:53:09.245Z</time>
      </trkpt>
      <trkpt lat="43.54221" lon="1.44995">
        <ele>236.54510498047</ele>
        <time>2021-03-18T20:53:10.411Z</time>
      </trkpt>
      <trkpt lat="43.54067" lon="1.45052">
        <ele>227.19462585449</ele>
        <time>2021-03-18T20:53:11.606Z</time>
      </trkpt>
      <trkpt lat="43.5402" lon="1.4508">
        <ele>221.56436157227</ele>
        <time>2021-03-18T20:53:12.810Z</time>
      </trkpt>
      <trkpt lat="43.53983" lon="1.45127">
        <ele>216.63572692871</ele>
        <time>2021-03-18T20:53:14.023Z</time>
      </trkpt>
      <trkpt lat="43.53942" lon="1.45201">
        <ele>210.82928466797</ele>
        <time>2021-03-18T20:53:15.249Z</time>
      </trkpt>
      <trkpt lat="43.53942" lon="1.45201">
        <ele>210.82656860352</ele>
        <time>2021-03-18T20:53:16.475Z</time>
      </trkpt>
      <trkpt lat="43.53901" lon="1.45297">
        <ele>204.92134094238</ele>
        <time>2021-03-18T20:53:17.715Z</time>
      </trkpt>
      <trkpt lat="43.53846" lon="1.45364">
        <ele>203.18545532227</ele>
        <time>2021-03-18T20:53:18.969Z</time>
      </trkpt>
      <trkpt lat="43.5374" lon="1.45448">
        <ele>200.76051330566</ele>
        <time>2021-03-18T20:53:20.245Z</time>
      </trkpt>
      <trkpt lat="43.53633" lon="1.45488">
        <ele>187.63499450684</ele>
        <time>2021-03-18T20:53:21.541Z</time>
      </trkpt>
      <trkpt lat="43.53529" lon="1.45559">
        <ele>181.0107421875</ele>
        <time>2021-03-18T20:53:22.858Z</time>
      </trkpt>
      <trkpt lat="43.53486" lon="1.4561">
        <ele>180.47883605957</ele>
        <time>2021-03-18T20:53:24.186Z</time>
      </trkpt>
      <trkpt lat="43.53436" lon="1.45688">
        <ele>182.0265045166</ele>
        <time>2021-03-18T20:53:25.528Z</time>
      </trkpt>
      <trkpt lat="43.53356" lon="1.45845">
        <ele>178.7647857666</ele>
        <time>2021-03-18T20:53:26.895Z</time>
      </trkpt>
      <trkpt lat="43.53339" lon="1.45891">
        <ele>181.27610778809</ele>
        <time>2021-03-18T20:53:28.269Z</time>
      </trkpt>
      <trkpt lat="43.53284" lon="1.46043">
        <ele>184.37939453125</ele>
        <time>2021-03-18T20:53:29.665Z</time>
      </trkpt>
      <trkpt lat="43.53271" lon="1.4613">
        <ele>186.9077911377</ele>
        <time>2021-03-18T20:53:31.073Z</time>
      </trkpt>
      <trkpt lat="43.5325" lon="1.46332">
        <ele>188</ele>
        <time>2021-03-18T20:53:32.508Z</time>
      </trkpt>
      <trkpt lat="43.53221" lon="1.4643">
        <ele>190.58735656738</ele>
        <time>2021-03-18T20:53:33.957Z</time>
      </trkpt>
      <trkpt lat="43.53208" lon="1.46381">
        <ele>188.8713684082</ele>
        <time>2021-03-18T20:53:35.413Z</time>
      </trkpt>
      <trkpt lat="43.53171" lon="1.46232">
        <ele>194.67956542969</ele>
        <time>2021-03-18T20:53:36.890Z</time>
      </trkpt>
      <trkpt lat="43.53155" lon="1.46198">
        <ele>196.71746826172</ele>
        <time>2021-03-18T20:53:38.372Z</time>
      </trkpt>
      <trkpt lat="43.53109" lon="1.46142">
        <ele>200.28240966797</ele>
        <time>2021-03-18T20:53:39.865Z</time>
      </trkpt>
      <trkpt lat="43.53063" lon="1.46115">
        <ele>204.37173461914</ele>
        <time>2021-03-18T20:53:41.367Z</time>
      </trkpt>
      <trkpt lat="43.53" lon="1.46107">
        <ele>213.09710693359</ele>
        <time>2021-03-18T20:53:42.881Z</time>
      </trkpt>
      <trkpt lat="43.52931" lon="1.46144">
        <ele>218.29229736328</ele>
        <time>2021-03-18T20:53:44.408Z</time>
      </trkpt>
      <trkpt lat="43.52746" lon="1.46267">
        <ele>228.59999084473</ele>
        <time>2021-03-18T20:53:45.973Z</time>
      </trkpt>
      <trkpt lat="43.52708" lon="1.46282">
        <ele>233.81153869629</ele>
        <time>2021-03-18T20:53:47.545Z</time>
      </trkpt>
      <trkpt lat="43.52652" lon="1.46274">
        <ele>241.3020324707</ele>
        <time>2021-03-18T20:53:49.127Z</time>
      </trkpt>
      <trkpt lat="43.52538" lon="1.46235">
        <ele>247.78298950195</ele>
        <time>2021-03-18T20:53:50.730Z</time>
      </trkpt>
      <trkpt lat="43.52484" lon="1.46217">
        <ele>252.46464538574</ele>
        <time>2021-03-18T20:53:52.344Z</time>
      </trkpt>
      <trkpt lat="43.5246" lon="1.46216">
        <ele>251.60232543945</ele>
        <time>2021-03-18T20:53:53.962Z</time>
      </trkpt>
      <trkpt lat="43.52303" lon="1.46225">
        <ele>250</ele>
        <time>2021-03-18T20:53:55.609Z</time>
      </trkpt>
      <trkpt lat="43.52294" lon="1.46229">
        <ele>250</ele>
        <time>2021-03-18T20:53:57.257Z</time>
      </trkpt>
      <trkpt lat="43.52204" lon="1.46247">
        <ele>249.36715698242</ele>
        <time>2021-03-18T20:53:58.922Z</time>
      </trkpt>
      <trkpt lat="43.52121" lon="1.46266">
        <ele>256.55621337891</ele>
        <time>2021-03-18T20:54:00.602Z</time>
      </trkpt>
      <trkpt lat="43.52058" lon="1.46294">
        <ele>259.74948120117</ele>
        <time>2021-03-18T20:54:02.294Z</time>
      </trkpt>
      <trkpt lat="43.52008" lon="1.46315">
        <ele>260.10626220703</ele>
        <time>2021-03-18T20:54:03.996Z</time>
      </trkpt>
      <trkpt lat="43.51942" lon="1.46326">
        <ele>266.56130981445</ele>
        <time>2021-03-18T20:54:05.710Z</time>
      </trkpt>
      <trkpt lat="43.51874" lon="1.46324">
        <ele>268.29357910156</ele>
        <time>2021-03-18T20:54:07.436Z</time>
      </trkpt>
      <trkpt lat="43.51791" lon="1.46297">
        <ele>270.61703491211</ele>
        <time>2021-03-18T20:54:09.178Z</time>
      </trkpt>
      <trkpt lat="43.51711" lon="1.46254">
        <ele>276.01382446289</ele>
        <time>2021-03-18T20:54:10.935Z</time>
      </trkpt>
      <trkpt lat="43.51623" lon="1.4624">
        <ele>271.3053894043</ele>
        <time>2021-03-18T20:54:12.708Z</time>
      </trkpt>
      <trkpt lat="43.51587" lon="1.46236">
        <ele>272.80578613281</ele>
        <time>2021-03-18T20:54:14.488Z</time>
      </trkpt>
      <trkpt lat="43.51511" lon="1.46232">
        <ele>272.75836181641</ele>
        <time>2021-03-18T20:54:16.282Z</time>
      </trkpt>
      <trkpt lat="43.51451" lon="1.46245">
        <ele>268.32821655273</ele>
        <time>2021-03-18T20:54:18.087Z</time>
      </trkpt>
      <trkpt lat="43.51415" lon="1.46238">
        <ele>263.10638427734</ele>
        <time>2021-03-18T20:54:19.898Z</time>
      </trkpt>
      <trkpt lat="43.51412" lon="1.46232">
        <ele>262.41192626953</ele>
        <time>2021-03-18T20:54:21.710Z</time>
      </trkpt>
      <trkpt lat="43.51397" lon="1.46223">
        <ele>260.71295166016</ele>
        <time>2021-03-18T20:54:23.525Z</time>
      </trkpt>
      <trkpt lat="43.51385" lon="1.46232">
        <ele>260.77139282227</ele>
        <time>2021-03-18T20:54:25.343Z</time>
      </trkpt>
      <trkpt lat="43.51371" lon="1.46239">
        <ele>261.00866699219</ele>
        <time>2021-03-18T20:54:27.163Z</time>
      </trkpt>
      <trkpt lat="43.5135" lon="1.46237">
        <ele>260.99835205078</ele>
        <time>2021-03-18T20:54:28.987Z</time>
      </trkpt>
      <trkpt lat="43.512" lon="1.46166">
        <ele>257.03030395508</ele>
        <time>2021-03-18T20:54:30.840Z</time>
      </trkpt>
      <trkpt lat="43.5119" lon="1.46161">
        <ele>256.84741210938</ele>
        <time>2021-03-18T20:54:32.695Z</time>
      </trkpt>
      <trkpt lat="43.5119" lon="1.46161">
        <ele>256.84710693359</ele>
        <time>2021-03-18T20:54:34.550Z</time>
      </trkpt>
      <trkpt lat="43.51114" lon="1.46121">
        <ele>260.15106201172</ele>
        <time>2021-03-18T20:54:36.420Z</time>
      </trkpt>
      <trkpt lat="43.50984" lon="1.46077">
        <ele>257.58538818359</ele>
        <time>2021-03-18T20:54:38.314Z</time>
      </trkpt>
      <trkpt lat="43.50984" lon="1.46077">
        <ele>257.58447265625</ele>
        <time>2021-03-18T20:54:40.208Z</time>
      </trkpt>
      <trkpt lat="43.50883" lon="1.46057">
        <ele>256.65979003906</ele>
        <time>2021-03-18T20:54:42.121Z</time>
      </trkpt>
      <trkpt lat="43.50757" lon="1.46037">
        <ele>255</ele>
        <time>2021-03-18T20:54:44.057Z</time>
      </trkpt>
      <trkpt lat="43.50695" lon="1.46017">
        <ele>256.3369140625</ele>
        <time>2021-03-18T20:54:46.004Z</time>
      </trkpt>
      <trkpt lat="43.50669" lon="1.45998">
        <ele>255.02635192871</ele>
        <time>2021-03-18T20:54:47.957Z</time>
      </trkpt>
      <trkpt lat="43.50592" lon="1.45933">
        <ele>246.38734436035</ele>
        <time>2021-03-18T20:54:49.926Z</time>
      </trkpt>
      <trkpt lat="43.50574" lon="1.45918">
        <ele>246.25422668457</ele>
        <time>2021-03-18T20:54:51.899Z</time>
      </trkpt>
      <trkpt lat="43.50574" lon="1.45918">
        <ele>246.25483703613</ele>
        <time>2021-03-18T20:54:53.872Z</time>
      </trkpt>
      <trkpt lat="43.50475" lon="1.45833">
        <ele>239.26536560059</ele>
        <time>2021-03-18T20:54:55.866Z</time>
      </trkpt>
      <trkpt lat="43.50415" lon="1.45781">
        <ele>239.74356079102</ele>
        <time>2021-03-18T20:54:57.873Z</time>
      </trkpt>
      <trkpt lat="43.50262" lon="1.45662">
        <ele>223.16328430176</ele>
        <time>2021-03-18T20:54:59.912Z</time>
      </trkpt>
      <trkpt lat="43.50245" lon="1.45625">
        <ele>219.59208679199</ele>
        <time>2021-03-18T20:55:01.957Z</time>
      </trkpt>
      <trkpt lat="43.50238" lon="1.45594">
        <ele>216.65548706055</ele>
        <time>2021-03-18T20:55:04.006Z</time>
      </trkpt>
      <trkpt lat="43.50251" lon="1.45509">
        <ele>209.7615814209</ele>
        <time>2021-03-18T20:55:06.067Z</time>
      </trkpt>
      <trkpt lat="43.50251" lon="1.4547">
        <ele>207.99305725098</ele>
        <time>2021-03-18T20:55:08.133Z</time>
      </trkpt>
      <trkpt lat="43.50234" lon="1.45436">
        <ele>203.89237976074</ele>
        <time>2021-03-18T20:55:10.204Z</time>
      </trkpt>
      <trkpt lat="43.50215" lon="1.45423">
        <ele>202.81480407715</ele>
        <time>2021-03-18T20:55:12.279Z</time>
      </trkpt>
      <trkpt lat="43.50135" lon="1.45409">
        <ele>202.42984008789</ele>
        <time>2021-03-18T20:55:14.369Z</time>
      </trkpt>
      <trkpt lat="43.50095" lon="1.45413">
        <ele>195.39965820312</ele>
        <time>2021-03-18T20:55:16.466Z</time>
      </trkpt>
      <trkpt lat="43.50073" lon="1.45437">
        <ele>192.10523986816</ele>
        <time>2021-03-18T20:55:18.568Z</time>
      </trkpt>
      <trkpt lat="43.50013" lon="1.45527">
        <ele>191.45622253418</ele>
        <time>2021-03-18T20:55:20.686Z</time>
      </trkpt>
      <trkpt lat="43.49985" lon="1.45551">
        <ele>190.59104919434</ele>
        <time>2021-03-18T20:55:22.810Z</time>
      </trkpt>
      <trkpt lat="43.49946" lon="1.45553">
        <ele>187.09260559082</ele>
        <time>2021-03-18T20:55:24.941Z</time>
      </trkpt>
      <trkpt lat="43.49947" lon="1.45553">
        <ele>187.09321594238</ele>
        <time>2021-03-18T20:55:27.072Z</time>
      </trkpt>
      <trkpt lat="43.49921" lon="1.45548">
        <ele>187.64108276367</ele>
        <time>2021-03-18T20:55:29.208Z</time>
      </trkpt>
      <trkpt lat="43.49872" lon="1.45548">
        <ele>191.17961120605</ele>
        <time>2021-03-18T20:55:31.353Z</time>
      </trkpt>
      <trkpt lat="43.49844" lon="1.45575">
        <ele>194.89707946777</ele>
        <time>2021-03-18T20:55:33.504Z</time>
      </trkpt>
      <trkpt lat="43.49773" lon="1.45708">
        <ele>200.83926391602</ele>
        <time>2021-03-18T20:55:35.677Z</time>
      </trkpt>
      <trkpt lat="43.49773" lon="1.45708">
        <ele>200.84077453613</ele>
        <time>2021-03-18T20:55:37.850Z</time>
      </trkpt>
      <trkpt lat="43.49702" lon="1.45841">
        <ele>204.39845275879</ele>
        <time>2021-03-18T20:55:40.045Z</time>
      </trkpt>
      <trkpt lat="43.49657" lon="1.45926">
        <ele>209.77838134766</ele>
        <time>2021-03-18T20:55:42.254Z</time>
      </trkpt>
      <trkpt lat="43.49625" lon="1.46023">
        <ele>213.38200378418</ele>
        <time>2021-03-18T20:55:44.477Z</time>
      </trkpt>
      <trkpt lat="43.49615" lon="1.46031">
        <ele>216.36042785645</ele>
        <time>2021-03-18T20:55:46.702Z</time>
      </trkpt>
      <trkpt lat="43.49541" lon="1.46052">
        <ele>226.76634216309</ele>
        <time>2021-03-18T20:55:48.941Z</time>
      </trkpt>
      <trkpt lat="43.49522" lon="1.46068">
        <ele>229.77561950684</ele>
        <time>2021-03-18T20:55:51.184Z</time>
      </trkpt>
      <trkpt lat="43.49496" lon="1.46105">
        <ele>232.88565063477</ele>
        <time>2021-03-18T20:55:53.434Z</time>
      </trkpt>
      <trkpt lat="43.4948" lon="1.46145">
        <ele>229.13442993164</ele>
        <time>2021-03-18T20:55:55.690Z</time>
      </trkpt>
      <trkpt lat="43.49449" lon="1.46298">
        <ele>229.20988464355</ele>
        <time>2021-03-18T20:55:57.967Z</time>
      </trkpt>
      <trkpt lat="43.49428" lon="1.4636">
        <ele>230.83361816406</ele>
        <time>2021-03-18T20:56:00.253Z</time>
      </trkpt>
      <trkpt lat="43.49382" lon="1.46419">
        <ele>236.76092529297</ele>
        <time>2021-03-18T20:56:02.550Z</time>
      </trkpt>
      <trkpt lat="43.49336" lon="1.46512">
        <ele>233.7926940918</ele>
        <time>2021-03-18T20:56:04.862Z</time>
      </trkpt>
      <trkpt lat="43.49336" lon="1.46512">
        <ele>233.79209899902</ele>
        <time>2021-03-18T20:56:07.174Z</time>
      </trkpt>
      <trkpt lat="43.49217" lon="1.46766">
        <ele>242.11459350586</ele>
        <time>2021-03-18T20:56:09.526Z</time>
      </trkpt>
      <trkpt lat="43.49102" lon="1.46937">
        <ele>250.31703186035</ele>
        <time>2021-03-18T20:56:11.909Z</time>
      </trkpt>
      <trkpt lat="43.49102" lon="1.46937">
        <ele>250.3143157959</ele>
        <time>2021-03-18T20:56:14.292Z</time>
      </trkpt>
      <trkpt lat="43.4901" lon="1.47141">
        <ele>252.07916259766</ele>
        <time>2021-03-18T20:56:16.707Z</time>
      </trkpt>
      <trkpt lat="43.48983" lon="1.4718">
        <ele>248.32154846191</ele>
        <time>2021-03-18T20:56:19.129Z</time>
      </trkpt>
      <trkpt lat="43.48961" lon="1.472">
        <ele>248.99841308594</ele>
        <time>2021-03-18T20:56:21.556Z</time>
      </trkpt>
      <trkpt lat="43.48939" lon="1.47204">
        <ele>250.70964050293</ele>
        <time>2021-03-18T20:56:23.986Z</time>
      </trkpt>
      <trkpt lat="43.48906" lon="1.47184">
        <ele>250.2239074707</ele>
        <time>2021-03-18T20:56:26.423Z</time>
      </trkpt>
      <trkpt lat="43.4889" lon="1.47158">
        <ele>249.45362854004</ele>
        <time>2021-03-18T20:56:28.865Z</time>
      </trkpt>
      <trkpt lat="43.48883" lon="1.47134">
        <ele>249.0446472168</ele>
        <time>2021-03-18T20:56:31.310Z</time>
      </trkpt>
      <trkpt lat="43.48883" lon="1.47017">
        <ele>249.01202392578</ele>
        <time>2021-03-18T20:56:33.770Z</time>
      </trkpt>
      <trkpt lat="43.48894" lon="1.4688">
        <ele>245.17034912109</ele>
        <time>2021-03-18T20:56:36.249Z</time>
      </trkpt>
      <trkpt lat="43.48884" lon="1.46813">
        <ele>245.22863769531</ele>
        <time>2021-03-18T20:56:38.737Z</time>
      </trkpt>
      <trkpt lat="43.48884" lon="1.46813">
        <ele>245.22953796387</ele>
        <time>2021-03-18T20:56:41.225Z</time>
      </trkpt>
      <trkpt lat="43.48836" lon="1.46654">
        <ele>241.22050476074</ele>
        <time>2021-03-18T20:56:43.736Z</time>
      </trkpt>
      <trkpt lat="43.48837" lon="1.46589">
        <ele>237.5830078125</ele>
        <time>2021-03-18T20:56:46.255Z</time>
      </trkpt>
      <trkpt lat="43.489" lon="1.46276">
        <ele>224.78120422363</ele>
        <time>2021-03-18T20:56:48.817Z</time>
      </trkpt>
      <trkpt lat="43.4891" lon="1.46224">
        <ele>227.93954467773</ele>
        <time>2021-03-18T20:56:51.386Z</time>
      </trkpt>
      <trkpt lat="43.48923" lon="1.46156">
        <ele>228.337890625</ele>
        <time>2021-03-18T20:56:53.965Z</time>
      </trkpt>
      <trkpt lat="43.4892" lon="1.46121">
        <ele>225.02534484863</ele>
        <time>2021-03-18T20:56:56.548Z</time>
      </trkpt>
      <trkpt lat="43.48888" lon="1.461">
        <ele>227.05535888672</ele>
        <time>2021-03-18T20:56:59.138Z</time>
      </trkpt>
      <trkpt lat="43.4886" lon="1.46068">
        <ele>227.99635314941</ele>
        <time>2021-03-18T20:57:01.734Z</time>
      </trkpt>
      <trkpt lat="43.48826" lon="1.4598">
        <ele>220.27082824707</ele>
        <time>2021-03-18T20:57:04.343Z</time>
      </trkpt>
      <trkpt lat="43.48805" lon="1.45962">
        <ele>219.61099243164</ele>
        <time>2021-03-18T20:57:06.957Z</time>
      </trkpt>
      <trkpt lat="43.48757" lon="1.45948">
        <ele>215.40582275391</ele>
        <time>2021-03-18T20:57:09.580Z</time>
      </trkpt>
      <trkpt lat="43.48741" lon="1.45933">
        <ele>215.59248352051</ele>
        <time>2021-03-18T20:57:12.207Z</time>
      </trkpt>
      <trkpt lat="43.48732" lon="1.45897">
        <ele>215.90655517578</ele>
        <time>2021-03-18T20:57:14.838Z</time>
      </trkpt>
      <trkpt lat="43.48748" lon="1.45836">
        <ele>212.36276245117</ele>
        <time>2021-03-18T20:57:17.478Z</time>
      </trkpt>
      <trkpt lat="43.48747" lon="1.45795">
        <ele>207.96549987793</ele>
        <time>2021-03-18T20:57:20.123Z</time>
      </trkpt>
      <trkpt lat="43.4873" lon="1.45765">
        <ele>204.6722869873</ele>
        <time>2021-03-18T20:57:22.774Z</time>
      </trkpt>
      <trkpt lat="43.48679" lon="1.4572">
        <ele>197.34178161621</ele>
        <time>2021-03-18T20:57:25.435Z</time>
      </trkpt>
      <trkpt lat="43.48557" lon="1.45589">
        <ele>185.58348083496</ele>
        <time>2021-03-18T20:57:28.125Z</time>
      </trkpt>
      <trkpt lat="43.48517" lon="1.45498">
        <ele>180.92649841309</ele>
        <time>2021-03-18T20:57:30.829Z</time>
      </trkpt>
      <trkpt lat="43.48495" lon="1.4543">
        <ele>177.37271118164</ele>
        <time>2021-03-18T20:57:33.543Z</time>
      </trkpt>
      <trkpt lat="43.48482" lon="1.45393">
        <ele>175.73587036133</ele>
        <time>2021-03-18T20:57:36.262Z</time>
      </trkpt>
      <trkpt lat="43.48477" lon="1.45378">
        <ele>174.99942016602</ele>
        <time>2021-03-18T20:57:38.983Z</time>
      </trkpt>
      <trkpt lat="43.48477" lon="1.45378">
        <ele>174.99882507324</ele>
        <time>2021-03-18T20:57:41.704Z</time>
      </trkpt>
      <trkpt lat="43.48465" lon="1.45375">
        <ele>174.78402709961</ele>
        <time>2021-03-18T20:57:44.427Z</time>
      </trkpt>
      <trkpt lat="43.48459" lon="1.45379">
        <ele>175</ele>
        <time>2021-03-18T20:57:47.152Z</time>
      </trkpt>
      <trkpt lat="43.4844" lon="1.45377">
        <ele>175.27655029297</ele>
        <time>2021-03-18T20:57:49.880Z</time>
      </trkpt>
      <trkpt lat="43.48233" lon="1.45261">
        <ele>195.7085723877</ele>
        <time>2021-03-18T20:57:52.649Z</time>
      </trkpt>
      <trkpt lat="43.48181" lon="1.45233">
        <ele>199.57318115234</ele>
        <time>2021-03-18T20:57:55.428Z</time>
      </trkpt>
      <trkpt lat="43.48157" lon="1.45242">
        <ele>202.24966430664</ele>
        <time>2021-03-18T20:57:58.211Z</time>
      </trkpt>
      <trkpt lat="43.48149" lon="1.45238">
        <ele>203.17727661133</ele>
        <time>2021-03-18T20:58:00.996Z</time>
      </trkpt>
      <trkpt lat="43.4815" lon="1.45251">
        <ele>202.5047454834</ele>
        <time>2021-03-18T20:58:03.783Z</time>
      </trkpt>
      <trkpt lat="43.48111" lon="1.45355">
        <ele>198.47605895996</ele>
        <time>2021-03-18T20:58:06.585Z</time>
      </trkpt>
      <trkpt lat="43.48095" lon="1.45366">
        <ele>200.63198852539</ele>
        <time>2021-03-18T20:58:09.390Z</time>
      </trkpt>
      <trkpt lat="43.48087" lon="1.45367">
        <ele>201.84080505371</ele>
        <time>2021-03-18T20:58:12.197Z</time>
      </trkpt>
      <trkpt lat="43.48069" lon="1.45377">
        <ele>203.88093566895</ele>
        <time>2021-03-18T20:58:15.007Z</time>
      </trkpt>
      <trkpt lat="43.47983" lon="1.45407">
        <ele>207.40594482422</ele>
        <time>2021-03-18T20:58:17.833Z</time>
      </trkpt>
      <trkpt lat="43.47774" lon="1.45481">
        <ele>218.16438293457</ele>
        <time>2021-03-18T20:58:20.699Z</time>
      </trkpt>
      <trkpt lat="43.47736" lon="1.45486">
        <ele>218.33311462402</ele>
        <time>2021-03-18T20:58:23.572Z</time>
      </trkpt>
      <trkpt lat="43.47704" lon="1.45472">
        <ele>218.55575561523</ele>
        <time>2021-03-18T20:58:26.451Z</time>
      </trkpt>
      <trkpt lat="43.47683" lon="1.45436">
        <ele>221.39680480957</ele>
        <time>2021-03-18T20:58:29.336Z</time>
      </trkpt>
      <trkpt lat="43.47633" lon="1.45353">
        <ele>224.30151367188</ele>
        <time>2021-03-18T20:58:32.235Z</time>
      </trkpt>
      <trkpt lat="43.47538" lon="1.45271">
        <ele>230.39897155762</ele>
        <time>2021-03-18T20:58:35.155Z</time>
      </trkpt>
      <trkpt lat="43.47514" lon="1.45242">
        <ele>230.70986938477</ele>
        <time>2021-03-18T20:58:38.080Z</time>
      </trkpt>
      <trkpt lat="43.47501" lon="1.45207">
        <ele>232.77049255371</ele>
        <time>2021-03-18T20:58:41.011Z</time>
      </trkpt>
      <trkpt lat="43.47497" lon="1.45131">
        <ele>238.15214538574</ele>
        <time>2021-03-18T20:58:43.952Z</time>
      </trkpt>
      <trkpt lat="43.4752" lon="1.4507">
        <ele>238.26829528809</ele>
        <time>2021-03-18T20:58:46.902Z</time>
      </trkpt>
      <trkpt lat="43.47522" lon="1.45047">
        <ele>238.13900756836</ele>
        <time>2021-03-18T20:58:49.855Z</time>
      </trkpt>
      <trkpt lat="43.4749" lon="1.45006">
        <ele>240.44798278809</ele>
        <time>2021-03-18T20:58:52.816Z</time>
      </trkpt>
      <trkpt lat="43.47468" lon="1.44994">
        <ele>242.48571777344</ele>
        <time>2021-03-18T20:58:55.781Z</time>
      </trkpt>
      <trkpt lat="43.47442" lon="1.45003">
        <ele>246.24221801758</ele>
        <time>2021-03-18T20:58:58.751Z</time>
      </trkpt>
      <trkpt lat="43.47363" lon="1.45056">
        <ele>251.52015686035</ele>
        <time>2021-03-18T20:59:01.737Z</time>
      </trkpt>
      <trkpt lat="43.47287" lon="1.45079">
        <ele>256.41806030273</ele>
        <time>2021-03-18T20:59:04.737Z</time>
      </trkpt>
      <trkpt lat="43.4726" lon="1.45116">
        <ele>257.15371704102</ele>
        <time>2021-03-18T20:59:07.744Z</time>
      </trkpt>
      <trkpt lat="43.47228" lon="1.45184">
        <ele>260.39532470703</ele>
        <time>2021-03-18T20:59:10.762Z</time>
      </trkpt>
      <trkpt lat="43.47142" lon="1.45365">
        <ele>267.39398193359</ele>
        <time>2021-03-18T20:59:13.808Z</time>
      </trkpt>
      <trkpt lat="43.47119" lon="1.45389">
        <ele>267.56353759766</ele>
        <time>2021-03-18T20:59:16.859Z</time>
      </trkpt>
      <trkpt lat="43.47101" lon="1.45393">
        <ele>266.77499389648</ele>
        <time>2021-03-18T20:59:19.914Z</time>
      </trkpt>
      <trkpt lat="43.47081" lon="1.45385">
        <ele>266.16003417969</ele>
        <time>2021-03-18T20:59:22.973Z</time>
      </trkpt>
      <trkpt lat="43.46971" lon="1.45307">
        <ele>272.89877319336</ele>
        <time>2021-03-18T20:59:26.054Z</time>
      </trkpt>
      <trkpt lat="43.46948" lon="1.45305">
        <ele>271.27786254883</ele>
        <time>2021-03-18T20:59:29.139Z</time>
      </trkpt>
      <trkpt lat="43.46905" lon="1.45317">
        <ele>268.50387573242</ele>
        <time>2021-03-18T20:59:32.232Z</time>
      </trkpt>
      <trkpt lat="43.46816" lon="1.45323">
        <ele>267.44277954102</ele>
        <time>2021-03-18T20:59:35.342Z</time>
      </trkpt>
      <trkpt lat="43.46816" lon="1.45323">
        <ele>267.4430847168</ele>
        <time>2021-03-18T20:59:38.452Z</time>
      </trkpt>
      <trkpt lat="43.46761" lon="1.4531">
        <ele>263.65118408203</ele>
        <time>2021-03-18T20:59:41.572Z</time>
      </trkpt>
      <trkpt lat="43.46739" lon="1.45297">
        <ele>263.888671875</ele>
        <time>2021-03-18T20:59:44.696Z</time>
      </trkpt>
      <trkpt lat="43.46727" lon="1.45288">
        <ele>264.81628417969</ele>
        <time>2021-03-18T20:59:47.823Z</time>
      </trkpt>
      <trkpt lat="43.46701" lon="1.4526">
        <ele>264.53457641602</ele>
        <time>2021-03-18T20:59:50.956Z</time>
      </trkpt>
      <trkpt lat="43.4669" lon="1.45256">
        <ele>264.49557495117</ele>
        <time>2021-03-18T20:59:54.091Z</time>
      </trkpt>
      <trkpt lat="43.46672" lon="1.45271">
        <ele>265.01574707031</ele>
        <time>2021-03-18T20:59:57.230Z</time>
      </trkpt>
      <trkpt lat="43.46637" lon="1.45311">
        <ele>261.50997924805</ele>
        <time>2021-03-18T21:00:00.377Z</time>
      </trkpt>
      <trkpt lat="43.46615" lon="1.4545">
        <ele>265.36172485352</ele>
        <time>2021-03-18T21:00:03.543Z</time>
      </trkpt>
      <trkpt lat="43.46567" lon="1.45536">
        <ele>267.21237182617</ele>
        <time>2021-03-18T21:00:06.723Z</time>
      </trkpt>
      <trkpt lat="43.46394" lon="1.4548">
        <ele>254.18035888672</ele>
        <time>2021-03-18T21:00:09.935Z</time>
      </trkpt>
      <trkpt lat="43.46394" lon="1.4548">
        <ele>254.1806640625</ele>
        <time>2021-03-18T21:00:13.147Z</time>
      </trkpt>
      <trkpt lat="43.46387" lon="1.45477">
        <ele>253.60626220703</ele>
        <time>2021-03-18T21:00:16.361Z</time>
      </trkpt>
      <trkpt lat="43.46196" lon="1.45351">
        <ele>245.68435668945</ele>
        <time>2021-03-18T21:00:19.613Z</time>
      </trkpt>
      <trkpt lat="43.46117" lon="1.45296">
        <ele>246.92190551758</ele>
        <time>2021-03-18T21:00:22.881Z</time>
      </trkpt>
      <trkpt lat="43.46024" lon="1.45213">
        <ele>241.42172241211</ele>
        <time>2021-03-18T21:00:26.169Z</time>
      </trkpt>
      <trkpt lat="43.46003" lon="1.45177">
        <ele>236.56184387207</ele>
        <time>2021-03-18T21:00:29.464Z</time>
      </trkpt>
      <trkpt lat="43.45988" lon="1.45133">
        <ele>233.25369262695</ele>
        <time>2021-03-18T21:00:32.765Z</time>
      </trkpt>
      <trkpt lat="43.45976" lon="1.45084">
        <ele>231.83253479004</ele>
        <time>2021-03-18T21:00:36.073Z</time>
      </trkpt>
      <trkpt lat="43.45968" lon="1.45015">
        <ele>230.59846496582</ele>
        <time>2021-03-18T21:00:39.390Z</time>
      </trkpt>
      <trkpt lat="43.45958" lon="1.44992">
        <ele>229.49795532227</ele>
        <time>2021-03-18T21:00:42.711Z</time>
      </trkpt>
      <trkpt lat="43.45935" lon="1.44983">
        <ele>227.98066711426</ele>
        <time>2021-03-18T21:00:46.036Z</time>
      </trkpt>
      <trkpt lat="43.45895" lon="1.45001">
        <ele>227.56097412109</ele>
        <time>2021-03-18T21:00:49.369Z</time>
      </trkpt>
      <trkpt lat="43.45866" lon="1.45003">
        <ele>226.75009155273</ele>
        <time>2021-03-18T21:00:52.707Z</time>
      </trkpt>
      <trkpt lat="43.45855" lon="1.44988">
        <ele>225.09521484375</ele>
        <time>2021-03-18T21:00:56.048Z</time>
      </trkpt>
      <trkpt lat="43.45841" lon="1.44938">
        <ele>220.78938293457</ele>
        <time>2021-03-18T21:00:59.396Z</time>
      </trkpt>
      <trkpt lat="43.45789" lon="1.44914">
        <ele>217.29296875</ele>
        <time>2021-03-18T21:01:02.754Z</time>
      </trkpt>
      <trkpt lat="43.45714" lon="1.44849">
        <ele>214.4690246582</ele>
        <time>2021-03-18T21:01:06.128Z</time>
      </trkpt>
      <trkpt lat="43.45693" lon="1.44805">
        <ele>211.09481811523</ele>
        <time>2021-03-18T21:01:09.509Z</time>
      </trkpt>
      <trkpt lat="43.45667" lon="1.44806">
        <ele>210.34455871582</ele>
        <time>2021-03-18T21:01:12.895Z</time>
      </trkpt>
      <trkpt lat="43.45555" lon="1.44867">
        <ele>196.32856750488</ele>
        <time>2021-03-18T21:01:16.303Z</time>
      </trkpt>
      <trkpt lat="43.45528" lon="1.44893">
        <ele>192.31280517578</ele>
        <time>2021-03-18T21:01:19.717Z</time>
      </trkpt>
      <trkpt lat="43.45511" lon="1.44925">
        <ele>192.7529296875</ele>
        <time>2021-03-18T21:01:23.136Z</time>
      </trkpt>
      <trkpt lat="43.45511" lon="1.44925">
        <ele>192.75473022461</ele>
        <time>2021-03-18T21:01:26.555Z</time>
      </trkpt>
      <trkpt lat="43.45498" lon="1.44951">
        <ele>192.53326416016</ele>
        <time>2021-03-18T21:01:29.978Z</time>
      </trkpt>
      <trkpt lat="43.45482" lon="1.44965">
        <ele>192.37879943848</ele>
        <time>2021-03-18T21:01:33.404Z</time>
      </trkpt>
      <trkpt lat="43.45469" lon="1.44962">
        <ele>191.50933837891</ele>
        <time>2021-03-18T21:01:36.833Z</time>
      </trkpt>
      <trkpt lat="43.45449" lon="1.44939">
        <ele>192.51681518555</ele>
        <time>2021-03-18T21:01:40.267Z</time>
      </trkpt>
      <trkpt lat="43.45441" lon="1.44929">
        <ele>193.7998046875</ele>
        <time>2021-03-18T21:01:43.702Z</time>
      </trkpt>
      <trkpt lat="43.45424" lon="1.44904">
        <ele>197.8155670166</ele>
        <time>2021-03-18T21:01:47.142Z</time>
      </trkpt>
      <trkpt lat="43.45418" lon="1.44876">
        <ele>200.3991394043</ele>
        <time>2021-03-18T21:01:50.586Z</time>
      </trkpt>
      <trkpt lat="43.4543" lon="1.44775">
        <ele>200.91772460938</ele>
        <time>2021-03-18T21:01:54.043Z</time>
      </trkpt>
      <trkpt lat="43.4542" lon="1.4472">
        <ele>201.64808654785</ele>
        <time>2021-03-18T21:01:57.508Z</time>
      </trkpt>
      <trkpt lat="43.45357" lon="1.44588">
        <ele>207.56140136719</ele>
        <time>2021-03-18T21:02:00.994Z</time>
      </trkpt>
      <trkpt lat="43.45314" lon="1.4452">
        <ele>213.94081115723</ele>
        <time>2021-03-18T21:02:04.492Z</time>
      </trkpt>
      <trkpt lat="43.45303" lon="1.44422">
        <ele>217.08586120605</ele>
        <time>2021-03-18T21:02:08.003Z</time>
      </trkpt>
      <trkpt lat="43.45283" lon="1.44368">
        <ele>218.23838806152</ele>
        <time>2021-03-18T21:02:11.522Z</time>
      </trkpt>
      <trkpt lat="43.4526" lon="1.44347">
        <ele>220.6324005127</ele>
        <time>2021-03-18T21:02:15.046Z</time>
      </trkpt>
      <trkpt lat="43.45239" lon="1.44348">
        <ele>221.41886901855</ele>
        <time>2021-03-18T21:02:18.574Z</time>
      </trkpt>
      <trkpt lat="43.45224" lon="1.4436">
        <ele>222.79412841797</ele>
        <time>2021-03-18T21:02:22.105Z</time>
      </trkpt>
      <trkpt lat="43.45211" lon="1.44405">
        <ele>223.99127197266</ele>
        <time>2021-03-18T21:02:25.642Z</time>
      </trkpt>
      <trkpt lat="43.45213" lon="1.44547">
        <ele>229.33602905273</ele>
        <time>2021-03-18T21:02:29.198Z</time>
      </trkpt>
      <trkpt lat="43.45155" lon="1.44747">
        <ele>237.37153625488</ele>
        <time>2021-03-18T21:02:32.783Z</time>
      </trkpt>
      <trkpt lat="43.45125" lon="1.44806">
        <ele>242.8365020752</ele>
        <time>2021-03-18T21:02:36.377Z</time>
      </trkpt>
      <trkpt lat="43.45033" lon="1.4491">
        <ele>242.66522216797</ele>
        <time>2021-03-18T21:02:39.993Z</time>
      </trkpt>
      <trkpt lat="43.45033" lon="1.4491">
        <ele>242.66432189941</ele>
        <time>2021-03-18T21:02:43.609Z</time>
      </trkpt>
      <trkpt lat="43.44993" lon="1.44954">
        <ele>242.1895904541</ele>
        <time>2021-03-18T21:02:47.234Z</time>
      </trkpt>
      <trkpt lat="43.44967" lon="1.44978">
        <ele>242.73036193848</ele>
        <time>2021-03-18T21:02:50.865Z</time>
      </trkpt>
      <trkpt lat="43.44914" lon="1.45009">
        <ele>243.04116821289</ele>
        <time>2021-03-18T21:02:54.506Z</time>
      </trkpt>
      <trkpt lat="43.44886" lon="1.45011">
        <ele>242.39546203613</ele>
        <time>2021-03-18T21:02:58.153Z</time>
      </trkpt>
      <trkpt lat="43.44854" lon="1.44995">
        <ele>241.8648223877</ele>
        <time>2021-03-18T21:03:01.806Z</time>
      </trkpt>
      <trkpt lat="43.44781" lon="1.44911">
        <ele>245.38453674316</ele>
        <time>2021-03-18T21:03:05.476Z</time>
      </trkpt>
      <trkpt lat="43.44708" lon="1.4485">
        <ele>251.52709960938</ele>
        <time>2021-03-18T21:03:09.162Z</time>
      </trkpt>
      <trkpt lat="43.44685" lon="1.44835">
        <ele>250.14869689941</ele>
        <time>2021-03-18T21:03:12.852Z</time>
      </trkpt>
      <trkpt lat="43.44641" lon="1.4482">
        <ele>242.80574035645</ele>
        <time>2021-03-18T21:03:16.550Z</time>
      </trkpt>
      <trkpt lat="43.4462" lon="1.44838">
        <ele>240.66943359375</ele>
        <time>2021-03-18T21:03:20.253Z</time>
      </trkpt>
      <trkpt lat="43.44591" lon="1.44955">
        <ele>238.03561401367</ele>
        <time>2021-03-18T21:03:23.972Z</time>
      </trkpt>
      <trkpt lat="43.44594" lon="1.44994">
        <ele>236.77670288086</ele>
        <time>2021-03-18T21:03:27.697Z</time>
      </trkpt>
      <trkpt lat="43.44612" lon="1.4505">
        <ele>237.61712646484</ele>
        <time>2021-03-18T21:03:31.430Z</time>
      </trkpt>
      <trkpt lat="43.4461" lon="1.45077">
        <ele>236.22705078125</ele>
        <time>2021-03-18T21:03:35.166Z</time>
      </trkpt>
      <trkpt lat="43.44604" lon="1.45088">
        <ele>235.12655639648</ele>
        <time>2021-03-18T21:03:38.904Z</time>
      </trkpt>
      <trkpt lat="43.44534" lon="1.45123">
        <ele>227.9222869873</ele>
        <time>2021-03-18T21:03:42.656Z</time>
      </trkpt>
      <trkpt lat="43.44379" lon="1.4518">
        <ele>214.76823425293</ele>
        <time>2021-03-18T21:03:46.437Z</time>
      </trkpt>
      <trkpt lat="43.44379" lon="1.4518">
        <ele>214.76914978027</ele>
        <time>2021-03-18T21:03:50.218Z</time>
      </trkpt>
      <trkpt lat="43.4433" lon="1.45185">
        <ele>208.90298461914</ele>
        <time>2021-03-18T21:03:54.008Z</time>
      </trkpt>
      <trkpt lat="43.44302" lon="1.45197">
        <ele>207.04132080078</ele>
        <time>2021-03-18T21:03:57.803Z</time>
      </trkpt>
      <trkpt lat="43.4426" lon="1.45233">
        <ele>203.57443237305</ele>
        <time>2021-03-18T21:04:01.607Z</time>
      </trkpt>
      <trkpt lat="43.4426" lon="1.45233">
        <ele>203.57563781738</ele>
        <time>2021-03-18T21:04:05.411Z</time>
      </trkpt>
      <trkpt lat="43.44202" lon="1.45344">
        <ele>196.45433044434</ele>
        <time>2021-03-18T21:04:09.233Z</time>
      </trkpt>
      <trkpt lat="43.44185" lon="1.45415">
        <ele>195.72367858887</ele>
        <time>2021-03-18T21:04:13.065Z</time>
      </trkpt>
      <trkpt lat="43.44173" lon="1.45438">
        <ele>195.08044433594</ele>
        <time>2021-03-18T21:04:16.901Z</time>
      </trkpt>
      <trkpt lat="43.44152" lon="1.45449">
        <ele>194.7513885498</ele>
        <time>2021-03-18T21:04:20.741Z</time>
      </trkpt>
      <trkpt lat="43.44128" lon="1.45443">
        <ele>196.31918334961</ele>
        <time>2021-03-18T21:04:24.585Z</time>
      </trkpt>
      <trkpt lat="43.44108" lon="1.45427">
        <ele>197.05790710449</ele>
        <time>2021-03-18T21:04:28.434Z</time>
      </trkpt>
      <trkpt lat="43.44007" lon="1.45263">
        <ele>203.43769836426</ele>
        <time>2021-03-18T21:04:32.311Z</time>
      </trkpt>
      <trkpt lat="43.43979" lon="1.45219">
        <ele>205.25225830078</ele>
        <time>2021-03-18T21:04:36.196Z</time>
      </trkpt>
      <trkpt lat="43.43935" lon="1.4515">
        <ele>201.46371459961</ele>
        <time>2021-03-18T21:04:40.093Z</time>
      </trkpt>
      <trkpt lat="43.43878" lon="1.45065">
        <ele>199.37466430664</ele>
        <time>2021-03-18T21:04:44.005Z</time>
      </trkpt>
      <trkpt lat="43.43836" lon="1.44995">
        <ele>195.69183349609</ele>
        <time>2021-03-18T21:04:47.929Z</time>
      </trkpt>
      <trkpt lat="43.43814" lon="1.44959">
        <ele>195.22817993164</ele>
        <time>2021-03-18T21:04:51.859Z</time>
      </trkpt>
      <trkpt lat="43.43803" lon="1.44943">
        <ele>195.01138305664</ele>
        <time>2021-03-18T21:04:55.792Z</time>
      </trkpt>
      <trkpt lat="43.43766" lon="1.44883">
        <ele>191.37518310547</ele>
        <time>2021-03-18T21:04:59.736Z</time>
      </trkpt>
      <trkpt lat="43.43757" lon="1.44868">
        <ele>191.67663574219</ele>
        <time>2021-03-18T21:05:03.682Z</time>
      </trkpt>
      <trkpt lat="43.43743" lon="1.44845">
        <ele>191.64533996582</ele>
        <time>2021-03-18T21:05:07.632Z</time>
      </trkpt>
      <trkpt lat="43.43678" lon="1.44742">
        <ele>191</ele>
        <time>2021-03-18T21:05:11.600Z</time>
      </trkpt>
      <trkpt lat="43.43642" lon="1.44682">
        <ele>189.58979797363</ele>
        <time>2021-03-18T21:05:15.579Z</time>
      </trkpt>
      <trkpt lat="43.43585" lon="1.44594">
        <ele>184.1478729248</ele>
        <time>2021-03-18T21:05:19.573Z</time>
      </trkpt>
      <trkpt lat="43.43503" lon="1.44469">
        <ele>186.55958557129</ele>
        <time>2021-03-18T21:05:23.590Z</time>
      </trkpt>
      <trkpt lat="43.4346" lon="1.44418">
        <ele>185.47088623047</ele>
        <time>2021-03-18T21:05:27.617Z</time>
      </trkpt>
      <trkpt lat="43.43435" lon="1.44388">
        <ele>185.27812194824</ele>
        <time>2021-03-18T21:05:31.650Z</time>
      </trkpt>
      <trkpt lat="43.43416" lon="1.44427">
        <ele>186.43849182129</ele>
        <time>2021-03-18T21:05:35.689Z</time>
      </trkpt>
      <trkpt lat="43.43379" lon="1.44496">
        <ele>187.18592834473</ele>
        <time>2021-03-18T21:05:39.740Z</time>
      </trkpt>
      <trkpt lat="43.43354" lon="1.44481">
        <ele>187.369140625</ele>
        <time>2021-03-18T21:05:43.796Z</time>
      </trkpt>
      <trkpt lat="43.43271" lon="1.4442">
        <ele>181.99208068848</ele>
        <time>2021-03-18T21:05:47.869Z</time>
      </trkpt>
      <trkpt lat="43.43226" lon="1.44364">
        <ele>179.36276245117</ele>
        <time>2021-03-18T21:05:51.953Z</time>
      </trkpt>
      <trkpt lat="43.43187" lon="1.44395">
        <ele>179.09216308594</ele>
        <time>2021-03-18T21:05:56.045Z</time>
      </trkpt>
      <trkpt lat="43.43147" lon="1.44398">
        <ele>177.74070739746</ele>
        <time>2021-03-18T21:06:00.144Z</time>
      </trkpt>
      <trkpt lat="43.43014" lon="1.44403">
        <ele>178.89286804199</ele>
        <time>2021-03-18T21:06:04.268Z</time>
      </trkpt>
      <trkpt lat="43.42961" lon="1.44404">
        <ele>182</ele>
        <time>2021-03-18T21:06:08.401Z</time>
      </trkpt>
      <trkpt lat="43.42916" lon="1.44406">
        <ele>180.08651733398</ele>
        <time>2021-03-18T21:06:12.542Z</time>
      </trkpt>
      <trkpt lat="43.42911" lon="1.44406">
        <ele>179.6997833252</ele>
        <time>2021-03-18T21:06:16.684Z</time>
      </trkpt>
      <trkpt lat="43.42907" lon="1.44432">
        <ele>179.46870422363</ele>
        <time>2021-03-18T21:06:20.830Z</time>
      </trkpt>
      <trkpt lat="43.42916" lon="1.4444">
        <ele>180.04295349121</ele>
        <time>2021-03-18T21:06:24.978Z</time>
      </trkpt>
      <trkpt lat="43.42916" lon="1.44422">
        <ele>180.04295349121</ele>
        <time>2021-03-18T21:06:29.128Z</time>
      </trkpt>
      <trkpt lat="43.42916" lon="1.44406">
        <ele>180.08651733398</ele>
        <time>2021-03-18T21:06:33.280Z</time>
      </trkpt>
      <trkpt lat="43.42961" lon="1.44404">
        <ele>182</ele>
        <time>2021-03-18T21:06:37.440Z</time>
      </trkpt>
      <trkpt lat="43.43014" lon="1.44403">
        <ele>178.89286804199</ele>
        <time>2021-03-18T21:06:41.610Z</time>
      </trkpt>
      <trkpt lat="43.43147" lon="1.44398">
        <ele>177.74070739746</ele>
        <time>2021-03-18T21:06:45.804Z</time>
      </trkpt>
      <trkpt lat="43.43187" lon="1.44395">
        <ele>179.09216308594</ele>
        <time>2021-03-18T21:06:50.006Z</time>
      </trkpt>
      <trkpt lat="43.43226" lon="1.44364">
        <ele>179.36276245117</ele>
        <time>2021-03-18T21:06:54.216Z</time>
      </trkpt>
      <trkpt lat="43.43268" lon="1.44328">
        <ele>180.1110534668</ele>
        <time>2021-03-18T21:06:58.435Z</time>
      </trkpt>
      <trkpt lat="43.433" lon="1.44302">
        <ele>180.70826721191</ele>
        <time>2021-03-18T21:07:02.661Z</time>
      </trkpt>
      <trkpt lat="43.43303" lon="1.44299">
        <ele>180.59213256836</ele>
        <time>2021-03-18T21:07:06.887Z</time>
      </trkpt>
      <trkpt lat="43.4331" lon="1.44292">
        <ele>180.146484375</ele>
        <time>2021-03-18T21:07:11.115Z</time>
      </trkpt>
      <trkpt lat="43.43342" lon="1.44286">
        <ele>179.68313598633</ele>
        <time>2021-03-18T21:07:15.349Z</time>
      </trkpt>
      <trkpt lat="43.43354" lon="1.44304">
        <ele>180.99597167969</ele>
        <time>2021-03-18T21:07:19.586Z</time>
      </trkpt>
      <trkpt lat="43.43375" lon="1.44338">
        <ele>183.03657531738</ele>
        <time>2021-03-18T21:07:23.829Z</time>
      </trkpt>
      <trkpt lat="43.43403" lon="1.44328">
        <ele>182.84747314453</ele>
        <time>2021-03-18T21:07:28.077Z</time>
      </trkpt>
      <trkpt lat="43.43435" lon="1.44388">
        <ele>185.27812194824</ele>
        <time>2021-03-18T21:07:32.335Z</time>
      </trkpt>
      <trkpt lat="43.4346" lon="1.44418">
        <ele>185.47088623047</ele>
        <time>2021-03-18T21:07:36.599Z</time>
      </trkpt>
      <trkpt lat="43.43503" lon="1.44469">
        <ele>186.55958557129</ele>
        <time>2021-03-18T21:07:40.873Z</time>
      </trkpt>
      <trkpt lat="43.43585" lon="1.44594">
        <ele>184.1478729248</ele>
        <time>2021-03-18T21:07:45.170Z</time>
      </trkpt>
      <trkpt lat="43.43642" lon="1.44682">
        <ele>189.58979797363</ele>
        <time>2021-03-18T21:07:49.482Z</time>
      </trkpt>
      <trkpt lat="43.43639" lon="1.44688">
        <ele>189.82147216797</ele>
        <time>2021-03-18T21:07:53.795Z</time>
      </trkpt>
      <trkpt lat="43.43639" lon="1.44688">
        <ele>189.82147216797</ele>
        <time>2021-03-18T21:07:58.108Z</time>
      </trkpt>
      <trkpt lat="43.43598" lon="1.44772">
        <ele>190.83329772949</ele>
        <time>2021-03-18T21:08:02.435Z</time>
      </trkpt>
      <trkpt lat="43.43576" lon="1.44819">
        <ele>193.32257080078</ele>
        <time>2021-03-18T21:08:06.769Z</time>
      </trkpt>
      <trkpt lat="43.43567" lon="1.4487">
        <ele>193.4441986084</ele>
        <time>2021-03-18T21:08:11.110Z</time>
      </trkpt>
      <trkpt lat="43.43556" lon="1.44935">
        <ele>195.49992370605</ele>
        <time>2021-03-18T21:08:15.460Z</time>
      </trkpt>
      <trkpt lat="43.43534" lon="1.45061">
        <ele>202.80174255371</ele>
        <time>2021-03-18T21:08:19.827Z</time>
      </trkpt>
      <trkpt lat="43.43521" lon="1.45147">
        <ele>207.69573974609</ele>
        <time>2021-03-18T21:08:24.206Z</time>
      </trkpt>
      <trkpt lat="43.43507" lon="1.45233">
        <ele>212.51197814941</ele>
        <time>2021-03-18T21:08:28.596Z</time>
      </trkpt>
      <trkpt lat="43.43488" lon="1.45375">
        <ele>216.78190612793</ele>
        <time>2021-03-18T21:08:33.005Z</time>
      </trkpt>
      <trkpt lat="43.43486" lon="1.45396">
        <ele>217.70582580566</ele>
        <time>2021-03-18T21:08:37.417Z</time>
      </trkpt>
      <trkpt lat="43.4346" lon="1.45605">
        <ele>220.69593811035</ele>
        <time>2021-03-18T21:08:41.857Z</time>
      </trkpt>
      <trkpt lat="43.43452" lon="1.45686">
        <ele>225.51268005371</ele>
        <time>2021-03-18T21:08:46.308Z</time>
      </trkpt>
      <trkpt lat="43.43452" lon="1.45686">
        <ele>225.51177978516</ele>
        <time>2021-03-18T21:08:50.759Z</time>
      </trkpt>
      <trkpt lat="43.43447" lon="1.45767">
        <ele>226.97909545898</ele>
        <time>2021-03-18T21:08:55.221Z</time>
      </trkpt>
      <trkpt lat="43.43477" lon="1.45984">
        <ele>232.41647338867</ele>
        <time>2021-03-18T21:08:59.712Z</time>
      </trkpt>
      <trkpt lat="43.43477" lon="1.46055">
        <ele>234.18798828125</ele>
        <time>2021-03-18T21:09:04.213Z</time>
      </trkpt>
      <trkpt lat="43.43395" lon="1.46334">
        <ele>238.1618347168</ele>
        <time>2021-03-18T21:09:08.753Z</time>
      </trkpt>
      <trkpt lat="43.43395" lon="1.46334">
        <ele>238.1618347168</ele>
        <time>2021-03-18T21:09:13.293Z</time>
      </trkpt>
      <trkpt lat="43.43378" lon="1.46411">
        <ele>241.51928710938</ele>
        <time>2021-03-18T21:09:17.844Z</time>
      </trkpt>
      <trkpt lat="43.43383" lon="1.46525">
        <ele>242.35858154297</ele>
        <time>2021-03-18T21:09:22.410Z</time>
      </trkpt>
      <trkpt lat="43.43395" lon="1.46614">
        <ele>247.77705383301</ele>
        <time>2021-03-18T21:09:26.988Z</time>
      </trkpt>
      <trkpt lat="43.43442" lon="1.46818">
        <ele>253.85346984863</ele>
        <time>2021-03-18T21:09:31.595Z</time>
      </trkpt>
      <trkpt lat="43.43445" lon="1.46838">
        <ele>254.28160095215</ele>
        <time>2021-03-18T21:09:36.204Z</time>
      </trkpt>
      <trkpt lat="43.43463" lon="1.47022">
        <ele>254.26406860352</ele>
        <time>2021-03-18T21:09:40.838Z</time>
      </trkpt>
      <trkpt lat="43.43483" lon="1.47218">
        <ele>251.06144714355</ele>
        <time>2021-03-18T21:09:45.498Z</time>
      </trkpt>
      <trkpt lat="43.43509" lon="1.47288">
        <ele>247.22303771973</ele>
        <time>2021-03-18T21:09:50.169Z</time>
      </trkpt>
      <trkpt lat="43.43566" lon="1.47375">
        <ele>242.62367248535</ele>
        <time>2021-03-18T21:09:54.855Z</time>
      </trkpt>
      <trkpt lat="43.43711" lon="1.47502">
        <ele>252.0693359375</ele>
        <time>2021-03-18T21:09:59.572Z</time>
      </trkpt>
      <trkpt lat="43.43773" lon="1.47567">
        <ele>257.3698425293</ele>
        <time>2021-03-18T21:10:04.303Z</time>
      </trkpt>
      <trkpt lat="43.43843" lon="1.47643">
        <ele>262.21398925781</ele>
        <time>2021-03-18T21:10:09.051Z</time>
      </trkpt>
      <trkpt lat="43.43895" lon="1.47759">
        <ele>269.70330810547</ele>
        <time>2021-03-18T21:10:13.817Z</time>
      </trkpt>
      <trkpt lat="43.43895" lon="1.47791">
        <ele>269.40658569336</ele>
        <time>2021-03-18T21:10:18.587Z</time>
      </trkpt>
      <trkpt lat="43.43877" lon="1.47883">
        <ele>268.54849243164</ele>
        <time>2021-03-18T21:10:23.370Z</time>
      </trkpt>
      <trkpt lat="43.43874" lon="1.47938">
        <ele>265.91455078125</ele>
        <time>2021-03-18T21:10:28.160Z</time>
      </trkpt>
      <trkpt lat="43.43879" lon="1.48212">
        <ele>249.81887817383</ele>
        <time>2021-03-18T21:10:32.986Z</time>
      </trkpt>
      <trkpt lat="43.43973" lon="1.48356">
        <ele>250.83959960938</ele>
        <time>2021-03-18T21:10:37.838Z</time>
      </trkpt>
      <trkpt lat="43.44052" lon="1.48415">
        <ele>254.83174133301</ele>
        <time>2021-03-18T21:10:42.706Z</time>
      </trkpt>
      <trkpt lat="43.44178" lon="1.48531">
        <ele>253.81513977051</ele>
        <time>2021-03-18T21:10:47.602Z</time>
      </trkpt>
      <trkpt lat="43.44184" lon="1.48536">
        <ele>253.9695892334</ele>
        <time>2021-03-18T21:10:52.499Z</time>
      </trkpt>
      <trkpt lat="43.44289" lon="1.48624">
        <ele>256.96057128906</ele>
        <time>2021-03-18T21:10:57.419Z</time>
      </trkpt>
      <trkpt lat="43.44289" lon="1.48624">
        <ele>256.96087646484</ele>
        <time>2021-03-18T21:11:02.339Z</time>
      </trkpt>
      <trkpt lat="43.44536" lon="1.48795">
        <ele>249.63356018066</ele>
        <time>2021-03-18T21:11:07.309Z</time>
      </trkpt>
      <trkpt lat="43.44536" lon="1.48795">
        <ele>249.63417053223</ele>
        <time>2021-03-18T21:11:12.279Z</time>
      </trkpt>
      <trkpt lat="43.44543" lon="1.488">
        <ele>249.82542419434</ele>
        <time>2021-03-18T21:11:17.250Z</time>
      </trkpt>
      <trkpt lat="43.4457" lon="1.48828">
        <ele>251.99803161621</ele>
        <time>2021-03-18T21:11:22.227Z</time>
      </trkpt>
      <trkpt lat="43.44633" lon="1.48922">
        <ele>258.4716796875</ele>
        <time>2021-03-18T21:11:27.221Z</time>
      </trkpt>
      <trkpt lat="43.44702" lon="1.49024">
        <ele>254.33251953125</ele>
        <time>2021-03-18T21:11:32.234Z</time>
      </trkpt>
      <trkpt lat="43.44689" lon="1.49072">
        <ele>253.53477478027</ele>
        <time>2021-03-18T21:11:37.254Z</time>
      </trkpt>
      <trkpt lat="43.44615" lon="1.49438">
        <ele>255.17375183105</ele>
        <time>2021-03-18T21:11:42.324Z</time>
      </trkpt>
      <trkpt lat="43.44576" lon="1.49541">
        <ele>257.02383422852</ele>
        <time>2021-03-18T21:11:47.409Z</time>
      </trkpt>
      <trkpt lat="43.44576" lon="1.49541">
        <ele>257.02325439453</ele>
        <time>2021-03-18T21:11:52.494Z</time>
      </trkpt>
      <trkpt lat="43.44489" lon="1.49753">
        <ele>260.35025024414</ele>
        <time>2021-03-18T21:11:57.612Z</time>
      </trkpt>
      <trkpt lat="43.44481" lon="1.49755">
        <ele>260.62023925781</ele>
        <time>2021-03-18T21:12:02.731Z</time>
      </trkpt>
      <trkpt lat="43.44481" lon="1.49755">
        <ele>260.62054443359</ele>
        <time>2021-03-18T21:12:07.850Z</time>
      </trkpt>
      <trkpt lat="43.44467" lon="1.49748">
        <ele>260.92077636719</ele>
        <time>2021-03-18T21:12:12.972Z</time>
      </trkpt>
      <trkpt lat="43.44432" lon="1.49696">
        <ele>258.13470458984</ele>
        <time>2021-03-18T21:12:18.103Z</time>
      </trkpt>
      <trkpt lat="43.44405" lon="1.49689">
        <ele>257.07287597656</ele>
        <time>2021-03-18T21:12:23.239Z</time>
      </trkpt>
      <trkpt lat="43.44352" lon="1.49723">
        <ele>254.04884338379</ele>
        <time>2021-03-18T21:12:28.386Z</time>
      </trkpt>
      <trkpt lat="43.4426" lon="1.49801">
        <ele>246.4034576416</ele>
        <time>2021-03-18T21:12:33.552Z</time>
      </trkpt>
      <trkpt lat="43.4417" lon="1.4985">
        <ele>241.77067565918</ele>
        <time>2021-03-18T21:12:38.736Z</time>
      </trkpt>
      <trkpt lat="43.44055" lon="1.49887">
        <ele>243.05004882812</ele>
        <time>2021-03-18T21:12:43.941Z</time>
      </trkpt>
      <trkpt lat="43.43903" lon="1.49916">
        <ele>236.66703796387</ele>
        <time>2021-03-18T21:12:49.174Z</time>
      </trkpt>
      <trkpt lat="43.43774" lon="1.49976">
        <ele>233.86744689941</ele>
        <time>2021-03-18T21:12:54.432Z</time>
      </trkpt>
      <trkpt lat="43.43751" lon="1.49978">
        <ele>232.58383178711</ele>
        <time>2021-03-18T21:12:59.694Z</time>
      </trkpt>
      <trkpt lat="43.43708" lon="1.49967">
        <ele>225.29273986816</ele>
        <time>2021-03-18T21:13:04.964Z</time>
      </trkpt>
      <trkpt lat="43.43677" lon="1.49975">
        <ele>221.68589782715</ele>
        <time>2021-03-18T21:13:10.240Z</time>
      </trkpt>
      <trkpt lat="43.43627" lon="1.50008">
        <ele>217.53779602051</ele>
        <time>2021-03-18T21:13:15.526Z</time>
      </trkpt>
      <trkpt lat="43.43599" lon="1.50062">
        <ele>215.79237365723</ele>
        <time>2021-03-18T21:13:20.821Z</time>
      </trkpt>
      <trkpt lat="43.4358" lon="1.50073">
        <ele>211.99063110352</ele>
        <time>2021-03-18T21:13:26.120Z</time>
      </trkpt>
      <trkpt lat="43.43567" lon="1.50066">
        <ele>208.97882080078</ele>
        <time>2021-03-18T21:13:31.421Z</time>
      </trkpt>
      <trkpt lat="43.43547" lon="1.50029">
        <ele>205.69984436035</ele>
        <time>2021-03-18T21:13:36.728Z</time>
      </trkpt>
      <trkpt lat="43.43515" lon="1.49992">
        <ele>201.94528198242</ele>
        <time>2021-03-18T21:13:42.043Z</time>
      </trkpt>
      <trkpt lat="43.43482" lon="1.49899">
        <ele>196.22654724121</ele>
        <time>2021-03-18T21:13:47.372Z</time>
      </trkpt>
      <trkpt lat="43.43466" lon="1.4989">
        <ele>195</ele>
        <time>2021-03-18T21:13:52.704Z</time>
      </trkpt>
      <trkpt lat="43.43428" lon="1.49893">
        <ele>194.1946105957</ele>
        <time>2021-03-18T21:13:58.043Z</time>
      </trkpt>
      <trkpt lat="43.43416" lon="1.49894">
        <ele>193.69264221191</ele>
        <time>2021-03-18T21:14:03.384Z</time>
      </trkpt>
      <trkpt lat="43.43382" lon="1.49908">
        <ele>191.80104064941</ele>
        <time>2021-03-18T21:14:08.731Z</time>
      </trkpt>
      <trkpt lat="43.43354" lon="1.49926">
        <ele>191.20291137695</ele>
        <time>2021-03-18T21:14:14.084Z</time>
      </trkpt>
      <trkpt lat="43.43255" lon="1.4999">
        <ele>195.64733886719</ele>
        <time>2021-03-18T21:14:19.457Z</time>
      </trkpt>
      <trkpt lat="43.43228" lon="1.50018">
        <ele>195.20999145508</ele>
        <time>2021-03-18T21:14:24.836Z</time>
      </trkpt>
      <trkpt lat="43.43173" lon="1.50093">
        <ele>198.66429138184</ele>
        <time>2021-03-18T21:14:30.229Z</time>
      </trkpt>
      <trkpt lat="43.43106" lon="1.50229">
        <ele>199.13552856445</ele>
        <time>2021-03-18T21:14:35.644Z</time>
      </trkpt>
      <trkpt lat="43.43092" lon="1.50242">
        <ele>199.09721374512</ele>
        <time>2021-03-18T21:14:41.062Z</time>
      </trkpt>
      <trkpt lat="43.42889" lon="1.50184">
        <ele>210.03881835938</ele>
        <time>2021-03-18T21:14:46.518Z</time>
      </trkpt>
      <trkpt lat="43.42889" lon="1.50184">
        <ele>210.03971862793</ele>
        <time>2021-03-18T21:14:51.974Z</time>
      </trkpt>
      <trkpt lat="43.42869" lon="1.50212">
        <ele>210.93650817871</ele>
        <time>2021-03-18T21:14:57.435Z</time>
      </trkpt>
      <trkpt lat="43.42839" lon="1.50284">
        <ele>215.1918182373</ele>
        <time>2021-03-18T21:15:02.907Z</time>
      </trkpt>
      <trkpt lat="43.4279" lon="1.50494">
        <ele>221.27026367188</ele>
        <time>2021-03-18T21:15:08.408Z</time>
      </trkpt>
      <trkpt lat="43.4275" lon="1.50607">
        <ele>225.84985351562</ele>
        <time>2021-03-18T21:15:13.926Z</time>
      </trkpt>
      <trkpt lat="43.4275" lon="1.50607">
        <ele>225.84985351562</ele>
        <time>2021-03-18T21:15:19.444Z</time>
      </trkpt>
      <trkpt lat="43.42709" lon="1.50713">
        <ele>224.40936279297</ele>
        <time>2021-03-18T21:15:24.978Z</time>
      </trkpt>
      <trkpt lat="43.42878" lon="1.50795">
        <ele>213.6071472168</ele>
        <time>2021-03-18T21:15:30.544Z</time>
      </trkpt>
      <trkpt lat="43.43049" lon="1.5093">
        <ele>231.1343536377</ele>
        <time>2021-03-18T21:15:36.146Z</time>
      </trkpt>
      <trkpt lat="43.43185" lon="1.50999">
        <ele>225.06063842773</ele>
        <time>2021-03-18T21:15:41.775Z</time>
      </trkpt>
      <trkpt lat="43.4323" lon="1.51036">
        <ele>218.34005737305</ele>
        <time>2021-03-18T21:15:47.413Z</time>
      </trkpt>
      <trkpt lat="43.43288" lon="1.51044">
        <ele>212.98583984375</ele>
        <time>2021-03-18T21:15:53.062Z</time>
      </trkpt>
      <trkpt lat="43.43354" lon="1.51026">
        <ele>209.20291137695</ele>
        <time>2021-03-18T21:15:58.723Z</time>
      </trkpt>
      <trkpt lat="43.43612" lon="1.50968">
        <ele>213.61755371094</ele>
        <time>2021-03-18T21:16:04.432Z</time>
      </trkpt>
      <trkpt lat="43.43804" lon="1.50984">
        <ele>199.98541259766</ele>
        <time>2021-03-18T21:16:10.176Z</time>
      </trkpt>
      <trkpt lat="43.43856" lon="1.50976">
        <ele>196.39672851562</ele>
        <time>2021-03-18T21:16:15.929Z</time>
      </trkpt>
      <trkpt lat="43.43865" lon="1.50975">
        <ele>196.30967712402</ele>
        <time>2021-03-18T21:16:21.684Z</time>
      </trkpt>
      <trkpt lat="43.43897" lon="1.50971">
        <ele>198.02313232422</ele>
        <time>2021-03-18T21:16:27.444Z</time>
      </trkpt>
      <trkpt lat="43.43913" lon="1.50969">
        <ele>199.74353027344</ele>
        <time>2021-03-18T21:16:33.207Z</time>
      </trkpt>
      <trkpt lat="43.43933" lon="1.50977">
        <ele>202.42126464844</ele>
        <time>2021-03-18T21:16:38.974Z</time>
      </trkpt>
      <trkpt lat="43.43945" lon="1.50997">
        <ele>203.5710144043</ele>
        <time>2021-03-18T21:16:44.745Z</time>
      </trkpt>
      <trkpt lat="43.44012" lon="1.51247">
        <ele>218.53868103027</ele>
        <time>2021-03-18T21:16:50.551Z</time>
      </trkpt>
      <trkpt lat="43.44022" lon="1.51254">
        <ele>220.57067871094</ele>
        <time>2021-03-18T21:16:56.359Z</time>
      </trkpt>
      <trkpt lat="43.44063" lon="1.51259">
        <ele>226.95475769043</ele>
        <time>2021-03-18T21:17:02.174Z</time>
      </trkpt>
      <trkpt lat="43.44076" lon="1.51272">
        <ele>228.34483337402</ele>
        <time>2021-03-18T21:17:07.992Z</time>
      </trkpt>
      <trkpt lat="43.44094" lon="1.51356">
        <ele>230.2006072998</ele>
        <time>2021-03-18T21:17:13.822Z</time>
      </trkpt>
      <trkpt lat="43.44111" lon="1.51389">
        <ele>232.23292541504</ele>
        <time>2021-03-18T21:17:19.657Z</time>
      </trkpt>
      <trkpt lat="43.44174" lon="1.51412">
        <ele>238.38896179199</ele>
        <time>2021-03-18T21:17:25.504Z</time>
      </trkpt>
      <trkpt lat="43.44213" lon="1.51444">
        <ele>240.96977233887</ele>
        <time>2021-03-18T21:17:31.359Z</time>
      </trkpt>
      <trkpt lat="43.44254" lon="1.51491">
        <ele>243.86080932617</ele>
        <time>2021-03-18T21:17:37.224Z</time>
      </trkpt>
      <trkpt lat="43.44254" lon="1.51491">
        <ele>243.86050415039</ele>
        <time>2021-03-18T21:17:43.089Z</time>
      </trkpt>
      <trkpt lat="43.44288" lon="1.51523">
        <ele>245.3963470459</ele>
        <time>2021-03-18T21:17:48.962Z</time>
      </trkpt>
      <trkpt lat="43.44403" lon="1.51568">
        <ele>243</ele>
        <time>2021-03-18T21:17:54.856Z</time>
      </trkpt>
      <trkpt lat="43.44455" lon="1.51597">
        <ele>240</ele>
        <time>2021-03-18T21:18:00.761Z</time>
      </trkpt>
      <trkpt lat="43.44509" lon="1.51613">
        <ele>241.0689239502</ele>
        <time>2021-03-18T21:18:06.676Z</time>
      </trkpt>
      <trkpt lat="43.4461" lon="1.51635">
        <ele>244.7084197998</ele>
        <time>2021-03-18T21:18:12.609Z</time>
      </trkpt>
      <trkpt lat="43.44682" lon="1.51682">
        <ele>251.60038757324</ele>
        <time>2021-03-18T21:18:18.557Z</time>
      </trkpt>
      <trkpt lat="43.44732" lon="1.5173">
        <ele>251.6926574707</ele>
        <time>2021-03-18T21:18:24.516Z</time>
      </trkpt>
      <trkpt lat="43.44778" lon="1.51754">
        <ele>255.20281982422</ele>
        <time>2021-03-18T21:18:30.484Z</time>
      </trkpt>
      <trkpt lat="43.44955" lon="1.5179">
        <ele>255.11982727051</ele>
        <time>2021-03-18T21:18:36.484Z</time>
      </trkpt>
      <trkpt lat="43.45013" lon="1.51816">
        <ele>254.1650390625</ele>
        <time>2021-03-18T21:18:42.495Z</time>
      </trkpt>
      <trkpt lat="43.45024" lon="1.51823">
        <ele>254.31948852539</ele>
        <time>2021-03-18T21:18:48.509Z</time>
      </trkpt>
      <trkpt lat="43.451" lon="1.51861">
        <ele>256.35195922852</ele>
        <time>2021-03-18T21:18:54.537Z</time>
      </trkpt>
      <trkpt lat="43.451" lon="1.51861">
        <ele>256.3522644043</ele>
        <time>2021-03-18T21:19:00.565Z</time>
      </trkpt>
      <trkpt lat="43.45137" lon="1.5188">
        <ele>255.35502624512</ele>
        <time>2021-03-18T21:19:06.600Z</time>
      </trkpt>
      <trkpt lat="43.45203" lon="1.51946">
        <ele>253.6336517334</ele>
        <time>2021-03-18T21:19:12.650Z</time>
      </trkpt>
      <trkpt lat="43.4526" lon="1.51996">
        <ele>256.26635742188</ele>
        <time>2021-03-18T21:19:18.713Z</time>
      </trkpt>
      <trkpt lat="43.45333" lon="1.52045">
        <ele>259.62991333008</ele>
        <time>2021-03-18T21:19:24.790Z</time>
      </trkpt>
      <trkpt lat="43.45333" lon="1.52045">
        <ele>259.6296081543</ele>
        <time>2021-03-18T21:19:30.867Z</time>
      </trkpt>
      <trkpt lat="43.45396" lon="1.52071">
        <ele>261.20138549805</ele>
        <time>2021-03-18T21:19:36.956Z</time>
      </trkpt>
      <trkpt lat="43.45462" lon="1.52096">
        <ele>261</ele>
        <time>2021-03-18T21:19:43.058Z</time>
      </trkpt>
      <trkpt lat="43.45502" lon="1.52112">
        <ele>263.14880371094</ele>
        <time>2021-03-18T21:19:49.167Z</time>
      </trkpt>
      <trkpt lat="43.45599" lon="1.5215">
        <ele>273.9794921875</ele>
        <time>2021-03-18T21:19:55.295Z</time>
      </trkpt>
      <trkpt lat="43.45615" lon="1.52174">
        <ele>276.64340209961</ele>
        <time>2021-03-18T21:20:01.427Z</time>
      </trkpt>
      <trkpt lat="43.45625" lon="1.52165">
        <ele>276.37341308594</ele>
        <time>2021-03-18T21:20:07.561Z</time>
      </trkpt>
      <trkpt lat="43.45629" lon="1.52163">
        <ele>276.37341308594</ele>
        <time>2021-03-18T21:20:13.696Z</time>
      </trkpt>
      <trkpt lat="43.45693" lon="1.52142">
        <ele>276.07879638672</ele>
        <time>2021-03-18T21:20:19.843Z</time>
      </trkpt>
      <trkpt lat="43.45787" lon="1.52093">
        <ele>277.62814331055</ele>
        <time>2021-03-18T21:20:26.008Z</time>
      </trkpt>
      <trkpt lat="43.45821" lon="1.52053">
        <ele>276.90029907227</ele>
        <time>2021-03-18T21:20:32.181Z</time>
      </trkpt>
      <trkpt lat="43.4585" lon="1.52001">
        <ele>280.93270874023</ele>
        <time>2021-03-18T21:20:38.363Z</time>
      </trkpt>
      <trkpt lat="43.45875" lon="1.51928">
        <ele>282.07629394531</ele>
        <time>2021-03-18T21:20:44.556Z</time>
      </trkpt>
      <trkpt lat="43.45916" lon="1.51574">
        <ele>287.35461425781</ele>
        <time>2021-03-18T21:20:50.796Z</time>
      </trkpt>
      <trkpt lat="43.45968" lon="1.51366">
        <ele>287.14932250977</ele>
        <time>2021-03-18T21:20:57.065Z</time>
      </trkpt>
      <trkpt lat="43.46008" lon="1.51236">
        <ele>287</ele>
        <time>2021-03-18T21:21:03.353Z</time>
      </trkpt>
      <trkpt lat="43.4602" lon="1.51201">
        <ele>287.50183105469</ele>
        <time>2021-03-18T21:21:09.646Z</time>
      </trkpt>
      <trkpt lat="43.46083" lon="1.51024">
        <ele>282.78399658203</ele>
        <time>2021-03-18T21:21:15.965Z</time>
      </trkpt>
      <trkpt lat="43.46008" lon="1.50987">
        <ele>277.28228759766</ele>
        <time>2021-03-18T21:21:22.299Z</time>
      </trkpt>
      <trkpt lat="43.46008" lon="1.50987">
        <ele>277.28289794922</ele>
        <time>2021-03-18T21:21:28.633Z</time>
      </trkpt>
      <trkpt lat="43.46083" lon="1.51024">
        <ele>282.78311157227</ele>
        <time>2021-03-18T21:21:34.981Z</time>
      </trkpt>
      <trkpt lat="43.46214" lon="1.50665">
        <ele>279.41412353516</ele>
        <time>2021-03-18T21:21:41.382Z</time>
      </trkpt>
      <trkpt lat="43.46293" lon="1.50509">
        <ele>275.67770385742</ele>
        <time>2021-03-18T21:21:47.808Z</time>
      </trkpt>
      <trkpt lat="43.46293" lon="1.50509">
        <ele>275.67922973633</ele>
        <time>2021-03-18T21:21:54.234Z</time>
      </trkpt>
      <trkpt lat="43.46378" lon="1.50361">
        <ele>268.39556884766</ele>
        <time>2021-03-18T21:22:00.685Z</time>
      </trkpt>
      <trkpt lat="43.46482" lon="1.50191">
        <ele>263.81823730469</ele>
        <time>2021-03-18T21:22:07.166Z</time>
      </trkpt>
      <trkpt lat="43.46676" lon="1.49989">
        <ele>246.85455322266</ele>
        <time>2021-03-18T21:22:13.691Z</time>
      </trkpt>
      <trkpt lat="43.46818" lon="1.49857">
        <ele>237.74697875977</ele>
        <time>2021-03-18T21:22:20.247Z</time>
      </trkpt>
      <trkpt lat="43.46948" lon="1.49655">
        <ele>221.99514770508</ele>
        <time>2021-03-18T21:22:26.839Z</time>
      </trkpt>
      <trkpt lat="43.46948" lon="1.49655">
        <ele>221.99635314941</ele>
        <time>2021-03-18T21:22:33.431Z</time>
      </trkpt>
      <trkpt lat="43.47152" lon="1.49329">
        <ele>204.81352233887</ele>
        <time>2021-03-18T21:22:40.080Z</time>
      </trkpt>
      <trkpt lat="43.47173" lon="1.4929">
        <ele>203.87434387207</ele>
        <time>2021-03-18T21:22:46.735Z</time>
      </trkpt>
      <trkpt lat="43.4721" lon="1.49182">
        <ele>202.14419555664</ele>
        <time>2021-03-18T21:22:53.406Z</time>
      </trkpt>
      <trkpt lat="43.47227" lon="1.49115">
        <ele>202.24220275879</ele>
        <time>2021-03-18T21:23:00.086Z</time>
      </trkpt>
      <trkpt lat="43.4723" lon="1.49106">
        <ele>202.95202636719</ele>
        <time>2021-03-18T21:23:06.768Z</time>
      </trkpt>
      <trkpt lat="43.47244" lon="1.49106">
        <ele>203.95657348633</ele>
        <time>2021-03-18T21:23:13.452Z</time>
      </trkpt>
      <trkpt lat="43.47303" lon="1.49109">
        <ele>206.86370849609</ele>
        <time>2021-03-18T21:23:20.147Z</time>
      </trkpt>
      <trkpt lat="43.47378" lon="1.49167">
        <ele>214.26954650879</ele>
        <time>2021-03-18T21:23:26.858Z</time>
      </trkpt>
      <trkpt lat="43.47416" lon="1.49208">
        <ele>217.47145080566</ele>
        <time>2021-03-18T21:23:33.577Z</time>
      </trkpt>
      <trkpt lat="43.47431" lon="1.49228">
        <ele>218.76127624512</ele>
        <time>2021-03-18T21:23:40.300Z</time>
      </trkpt>
      <trkpt lat="43.47431" lon="1.49228">
        <ele>218.76187133789</ele>
        <time>2021-03-18T21:23:47.023Z</time>
      </trkpt>
      <trkpt lat="43.47451" lon="1.49252">
        <ele>220.94444274902</ele>
        <time>2021-03-18T21:23:53.751Z</time>
      </trkpt>
      <trkpt lat="43.47484" lon="1.49275">
        <ele>225.70034790039</ele>
        <time>2021-03-18T21:24:00.486Z</time>
      </trkpt>
      <trkpt lat="43.47509" lon="1.4929">
        <ele>228.99011230469</ele>
        <time>2021-03-18T21:24:07.226Z</time>
      </trkpt>
      <trkpt lat="43.47522" lon="1.49314">
        <ele>231.93893432617</ele>
        <time>2021-03-18T21:24:13.970Z</time>
      </trkpt>
      <trkpt lat="43.47522" lon="1.49338">
        <ele>232.80892944336</ele>
        <time>2021-03-18T21:24:20.717Z</time>
      </trkpt>
      <trkpt lat="43.47502" lon="1.4939">
        <ele>230.2283782959</ele>
        <time>2021-03-18T21:24:27.472Z</time>
      </trkpt>
      <trkpt lat="43.47476" lon="1.49463">
        <ele>231.68830871582</ele>
        <time>2021-03-18T21:24:34.238Z</time>
      </trkpt>
      <trkpt lat="43.47466" lon="1.49514">
        <ele>235.40356445312</ele>
        <time>2021-03-18T21:24:41.010Z</time>
      </trkpt>
      <trkpt lat="43.4748" lon="1.49608">
        <ele>240.81011962891</ele>
        <time>2021-03-18T21:24:47.795Z</time>
      </trkpt>
      <trkpt lat="43.47481" lon="1.49749">
        <ele>249.06549072266</ele>
        <time>2021-03-18T21:24:54.599Z</time>
      </trkpt>
      <trkpt lat="43.47489" lon="1.4978">
        <ele>250.38217163086</ele>
        <time>2021-03-18T21:25:01.407Z</time>
      </trkpt>
      <trkpt lat="43.47512" lon="1.49799">
        <ele>255.77825927734</ele>
        <time>2021-03-18T21:25:08.220Z</time>
      </trkpt>
      <trkpt lat="43.47573" lon="1.49771">
        <ele>265.85229492188</ele>
        <time>2021-03-18T21:25:15.045Z</time>
      </trkpt>
      <trkpt lat="43.4759" lon="1.49772">
        <ele>268.08905029297</ele>
        <time>2021-03-18T21:25:21.873Z</time>
      </trkpt>
      <trkpt lat="43.47603" lon="1.49786">
        <ele>268.12213134766</ele>
        <time>2021-03-18T21:25:28.704Z</time>
      </trkpt>
      <trkpt lat="43.47608" lon="1.49804">
        <ele>267.13272094727</ele>
        <time>2021-03-18T21:25:35.537Z</time>
      </trkpt>
      <trkpt lat="43.47609" lon="1.49944">
        <ele>270.2145690918</ele>
        <time>2021-03-18T21:25:42.389Z</time>
      </trkpt>
      <trkpt lat="43.47619" lon="1.49969">
        <ele>270.45928955078</ele>
        <time>2021-03-18T21:25:49.245Z</time>
      </trkpt>
      <trkpt lat="43.47654" lon="1.50018">
        <ele>268.41793823242</ele>
        <time>2021-03-18T21:25:56.110Z</time>
      </trkpt>
      <trkpt lat="43.47675" lon="1.50037">
        <ele>267.3620300293</ele>
        <time>2021-03-18T21:26:02.979Z</time>
      </trkpt>
      <trkpt lat="43.47675" lon="1.50037">
        <ele>267.36172485352</ele>
        <time>2021-03-18T21:26:09.848Z</time>
      </trkpt>
      <trkpt lat="43.47786" lon="1.50107">
        <ele>268.54843139648</ele>
        <time>2021-03-18T21:26:16.740Z</time>
      </trkpt>
      <trkpt lat="43.47845" lon="1.50188">
        <ele>260.81610107422</ele>
        <time>2021-03-18T21:26:23.647Z</time>
      </trkpt>
      <trkpt lat="43.47851" lon="1.50196">
        <ele>260.33654785156</ele>
        <time>2021-03-18T21:26:30.555Z</time>
      </trkpt>
      <trkpt lat="43.47992" lon="1.50402">
        <ele>249.19621276855</ele>
        <time>2021-03-18T21:26:37.501Z</time>
      </trkpt>
      <trkpt lat="43.48012" lon="1.50419">
        <ele>250</ele>
        <time>2021-03-18T21:26:44.451Z</time>
      </trkpt>
      <trkpt lat="43.48112" lon="1.50405">
        <ele>252.95747375488</ele>
        <time>2021-03-18T21:26:51.419Z</time>
      </trkpt>
      <trkpt lat="43.48191" lon="1.50397">
        <ele>256.65960693359</ele>
        <time>2021-03-18T21:26:58.402Z</time>
      </trkpt>
      <trkpt lat="43.48261" lon="1.50394">
        <ele>256.16586303711</ele>
        <time>2021-03-18T21:27:05.397Z</time>
      </trkpt>
      <trkpt lat="43.48276" lon="1.50375">
        <ele>255.95391845703</ele>
        <time>2021-03-18T21:27:12.396Z</time>
      </trkpt>
      <trkpt lat="43.48373" lon="1.503">
        <ele>257.63424682617</ele>
        <time>2021-03-18T21:27:19.415Z</time>
      </trkpt>
      <trkpt lat="43.48373" lon="1.503">
        <ele>257.63485717773</ele>
        <time>2021-03-18T21:27:26.434Z</time>
      </trkpt>
      <trkpt lat="43.48381" lon="1.50293">
        <ele>258.01223754883</ele>
        <time>2021-03-18T21:27:33.455Z</time>
      </trkpt>
      <trkpt lat="43.48655" lon="1.50123">
        <ele>268.58435058594</ele>
        <time>2021-03-18T21:27:40.531Z</time>
      </trkpt>
      <trkpt lat="43.48764" lon="1.50041">
        <ele>267.04574584961</ele>
        <time>2021-03-18T21:27:47.629Z</time>
      </trkpt>
      <trkpt lat="43.48832" lon="1.49998">
        <ele>269</ele>
        <time>2021-03-18T21:27:54.741Z</time>
      </trkpt>
      <trkpt lat="43.48908" lon="1.49962">
        <ele>270.06982421875</ele>
        <time>2021-03-18T21:28:01.868Z</time>
      </trkpt>
      <trkpt lat="43.48922" lon="1.49947">
        <ele>271.58874511719</ele>
        <time>2021-03-18T21:28:08.998Z</time>
      </trkpt>
      <trkpt lat="43.48922" lon="1.49947">
        <ele>271.58874511719</ele>
        <time>2021-03-18T21:28:16.128Z</time>
      </trkpt>
      <trkpt lat="43.48932" lon="1.49938">
        <ele>272.48941040039</ele>
        <time>2021-03-18T21:28:23.260Z</time>
      </trkpt>
      <trkpt lat="43.49007" lon="1.49796">
        <ele>277.90811157227</ele>
        <time>2021-03-18T21:28:30.415Z</time>
      </trkpt>
      <trkpt lat="43.49066" lon="1.49644">
        <ele>282.19815063477</ele>
        <time>2021-03-18T21:28:37.593Z</time>
      </trkpt>
      <trkpt lat="43.49113" lon="1.49491">
        <ele>278.3844909668</ele>
        <time>2021-03-18T21:28:44.793Z</time>
      </trkpt>
      <trkpt lat="43.4916" lon="1.49395">
        <ele>276.75927734375</ele>
        <time>2021-03-18T21:28:52.008Z</time>
      </trkpt>
      <trkpt lat="43.49216" lon="1.49333">
        <ele>275</ele>
        <time>2021-03-18T21:28:59.236Z</time>
      </trkpt>
      <trkpt lat="43.49425" lon="1.4907">
        <ele>265.86502075195</ele>
        <time>2021-03-18T21:29:06.516Z</time>
      </trkpt>
      <trkpt lat="43.49434" lon="1.49059">
        <ele>265.14767456055</ele>
        <time>2021-03-18T21:29:13.798Z</time>
      </trkpt>
      <trkpt lat="43.49434" lon="1.49059">
        <ele>265.14678955078</ele>
        <time>2021-03-18T21:29:21.080Z</time>
      </trkpt>
      <trkpt lat="43.49536" lon="1.48948">
        <ele>260.57138061523</ele>
        <time>2021-03-18T21:29:28.386Z</time>
      </trkpt>
      <trkpt lat="43.497" lon="1.48731">
        <ele>261.72067260742</ele>
        <time>2021-03-18T21:29:35.733Z</time>
      </trkpt>
      <trkpt lat="43.49744" lon="1.48661">
        <ele>264.71914672852</ele>
        <time>2021-03-18T21:29:43.092Z</time>
      </trkpt>
      <trkpt lat="43.49769" lon="1.48624">
        <ele>265.30743408203</ele>
        <time>2021-03-18T21:29:50.458Z</time>
      </trkpt>
      <trkpt lat="43.49788" lon="1.48599">
        <ele>266.9326171875</ele>
        <time>2021-03-18T21:29:57.829Z</time>
      </trkpt>
      <trkpt lat="43.49823" lon="1.4856">
        <ele>269.60723876953</ele>
        <time>2021-03-18T21:30:05.208Z</time>
      </trkpt>
      <trkpt lat="43.49845" lon="1.48555">
        <ele>270.35562133789</ele>
        <time>2021-03-18T21:30:12.591Z</time>
      </trkpt>
      <trkpt lat="43.49898" lon="1.48557">
        <ele>265.83312988281</ele>
        <time>2021-03-18T21:30:19.984Z</time>
      </trkpt>
      <trkpt lat="43.49998" lon="1.48524">
        <ele>256.35208129883</ele>
        <time>2021-03-18T21:30:27.396Z</time>
      </trkpt>
      <trkpt lat="43.5006" lon="1.48491">
        <ele>258.16748046875</ele>
        <time>2021-03-18T21:30:34.820Z</time>
      </trkpt>
      <trkpt lat="43.5006" lon="1.48491">
        <ele>258.16778564453</ele>
        <time>2021-03-18T21:30:42.244Z</time>
      </trkpt>
      <trkpt lat="43.50069" lon="1.48479">
        <ele>258.2414855957</ele>
        <time>2021-03-18T21:30:49.670Z</time>
      </trkpt>
      <trkpt lat="43.50111" lon="1.48428">
        <ele>258.40927124023</ele>
        <time>2021-03-18T21:30:57.106Z</time>
      </trkpt>
      <trkpt lat="43.50244" lon="1.4827">
        <ele>262.33416748047</ele>
        <time>2021-03-18T21:31:04.574Z</time>
      </trkpt>
      <trkpt lat="43.50297" lon="1.4821">
        <ele>268.09307861328</ele>
        <time>2021-03-18T21:31:12.055Z</time>
      </trkpt>
      <trkpt lat="43.50438" lon="1.48079">
        <ele>280.23629760742</ele>
        <time>2021-03-18T21:31:19.566Z</time>
      </trkpt>
      <trkpt lat="43.50469" lon="1.48032">
        <ele>277.59817504883</ele>
        <time>2021-03-18T21:31:27.086Z</time>
      </trkpt>
      <trkpt lat="43.50514" lon="1.47966">
        <ele>271.71310424805</ele>
        <time>2021-03-18T21:31:34.618Z</time>
      </trkpt>
      <trkpt lat="43.50731" lon="1.47729">
        <ele>277.24713134766</ele>
        <time>2021-03-18T21:31:42.200Z</time>
      </trkpt>
      <trkpt lat="43.50747" lon="1.47711">
        <ele>278.61386108398</ele>
        <time>2021-03-18T21:31:49.786Z</time>
      </trkpt>
      <trkpt lat="43.50828" lon="1.47615">
        <ele>278.94482421875</ele>
        <time>2021-03-18T21:31:57.392Z</time>
      </trkpt>
      <trkpt lat="43.50898" lon="1.47493">
        <ele>277.75607299805</ele>
        <time>2021-03-18T21:32:05.018Z</time>
      </trkpt>
      <trkpt lat="43.50938" lon="1.47437">
        <ele>272</ele>
        <time>2021-03-18T21:32:12.654Z</time>
      </trkpt>
      <trkpt lat="43.50968" lon="1.47405">
        <ele>274.32376098633</ele>
        <time>2021-03-18T21:32:20.297Z</time>
      </trkpt>
      <trkpt lat="43.50989" lon="1.47379">
        <ele>277.21343994141</ele>
        <time>2021-03-18T21:32:27.946Z</time>
      </trkpt>
      <trkpt lat="43.50994" lon="1.47371">
        <ele>277.15396118164</ele>
        <time>2021-03-18T21:32:35.596Z</time>
      </trkpt>
      <trkpt lat="43.51067" lon="1.47256">
        <ele>276.29550170898</ele>
        <time>2021-03-18T21:32:43.266Z</time>
      </trkpt>
      <trkpt lat="43.51067" lon="1.47256">
        <ele>276.29611206055</ele>
        <time>2021-03-18T21:32:50.936Z</time>
      </trkpt>
      <trkpt lat="43.51129" lon="1.4714">
        <ele>273.73114013672</ele>
        <time>2021-03-18T21:32:58.625Z</time>
      </trkpt>
      <trkpt lat="43.51148" lon="1.47103">
        <ele>274.2239074707</ele>
        <time>2021-03-18T21:33:06.320Z</time>
      </trkpt>
      <trkpt lat="43.51178" lon="1.47046">
        <ele>277.21160888672</ele>
        <time>2021-03-18T21:33:14.024Z</time>
      </trkpt>
      <trkpt lat="43.51198" lon="1.46975">
        <ele>276.86145019531</ele>
        <time>2021-03-18T21:33:21.739Z</time>
      </trkpt>
      <trkpt lat="43.51198" lon="1.46975">
        <ele>276.86175537109</ele>
        <time>2021-03-18T21:33:29.454Z</time>
      </trkpt>
      <trkpt lat="43.51224" lon="1.46882">
        <ele>274.09860229492</ele>
        <time>2021-03-18T21:33:37.182Z</time>
      </trkpt>
      <trkpt lat="43.5124" lon="1.46738">
        <ele>277.50588989258</ele>
        <time>2021-03-18T21:33:44.929Z</time>
      </trkpt>
      <trkpt lat="43.51288" lon="1.46622">
        <ele>276.46432495117</ele>
        <time>2021-03-18T21:33:52.694Z</time>
      </trkpt>
      <trkpt lat="43.51288" lon="1.46621">
        <ele>276.42568969727</ele>
        <time>2021-03-18T21:34:00.459Z</time>
      </trkpt>
      <trkpt lat="43.51322" lon="1.46504">
        <ele>274.54037475586</ele>
        <time>2021-03-18T21:34:08.240Z</time>
      </trkpt>
      <trkpt lat="43.51369" lon="1.46377">
        <ele>269.5514831543</ele>
        <time>2021-03-18T21:34:16.040Z</time>
      </trkpt>
      <trkpt lat="43.51376" lon="1.4636">
        <ele>268.98065185547</ele>
        <time>2021-03-18T21:34:23.843Z</time>
      </trkpt>
      <trkpt lat="43.51385" lon="1.46335">
        <ele>268.09255981445</ele>
        <time>2021-03-18T21:34:31.650Z</time>
      </trkpt>
      <trkpt lat="43.51405" lon="1.46269">
        <ele>264.57427978516</ele>
        <time>2021-03-18T21:34:39.466Z</time>
      </trkpt>
      <trkpt lat="43.51413" lon="1.46261">
        <ele>264.57366943359</ele>
        <time>2021-03-18T21:34:47.284Z</time>
      </trkpt>
      <trkpt lat="43.51415" lon="1.46238">
        <ele>263.10638427734</ele>
        <time>2021-03-18T21:34:55.105Z</time>
      </trkpt>
      <trkpt lat="43.51412" lon="1.46232">
        <ele>262.41134643555</ele>
        <time>2021-03-18T21:35:02.927Z</time>
      </trkpt>
      <trkpt lat="43.51416" lon="1.46209">
        <ele>261.54925537109</ele>
        <time>2021-03-18T21:35:10.752Z</time>
      </trkpt>
      <trkpt lat="43.51442" lon="1.46188">
        <ele>262.40768432617</ele>
        <time>2021-03-18T21:35:18.582Z</time>
      </trkpt>
      <trkpt lat="43.51458" lon="1.46157">
        <ele>260.80654907227</ele>
        <time>2021-03-18T21:35:26.418Z</time>
      </trkpt>
      <trkpt lat="43.51514" lon="1.45941">
        <ele>264.05487060547</ele>
        <time>2021-03-18T21:35:34.284Z</time>
      </trkpt>
      <trkpt lat="43.51544" lon="1.45875">
        <ele>268.61181640625</ele>
        <time>2021-03-18T21:35:42.160Z</time>
      </trkpt>
      <trkpt lat="43.51544" lon="1.45875">
        <ele>268.61120605469</ele>
        <time>2021-03-18T21:35:50.036Z</time>
      </trkpt>
      <trkpt lat="43.51606" lon="1.45753">
        <ele>268.05358886719</ele>
        <time>2021-03-18T21:35:57.932Z</time>
      </trkpt>
      <trkpt lat="43.51673" lon="1.45547">
        <ele>267.84295654297</ele>
        <time>2021-03-18T21:36:05.858Z</time>
      </trkpt>
      <trkpt lat="43.51679" lon="1.4553">
        <ele>267.99740600586</ele>
        <time>2021-03-18T21:36:13.786Z</time>
      </trkpt>
      <trkpt lat="43.51769" lon="1.45339">
        <ele>263.38354492188</ele>
        <time>2021-03-18T21:36:21.744Z</time>
      </trkpt>
      <trkpt lat="43.51774" lon="1.45326">
        <ele>263.24035644531</ele>
        <time>2021-03-18T21:36:29.704Z</time>
      </trkpt>
      <trkpt lat="43.51779" lon="1.45309">
        <ele>264.5393371582</ele>
        <time>2021-03-18T21:36:37.667Z</time>
      </trkpt>
      <trkpt lat="43.51836" lon="1.45114">
        <ele>261.21640014648</ele>
        <time>2021-03-18T21:36:45.657Z</time>
      </trkpt>
      <trkpt lat="43.51925" lon="1.44936">
        <ele>262.29513549805</ele>
        <time>2021-03-18T21:36:53.676Z</time>
      </trkpt>
      <trkpt lat="43.51956" lon="1.44843">
        <ele>261.17596435547</ele>
        <time>2021-03-18T21:37:01.709Z</time>
      </trkpt>
      <trkpt lat="43.51974" lon="1.44779">
        <ele>260</ele>
        <time>2021-03-18T21:37:09.751Z</time>
      </trkpt>
      <trkpt lat="43.52001" lon="1.44677">
        <ele>260.41677856445</ele>
        <time>2021-03-18T21:37:17.807Z</time>
      </trkpt>
      <trkpt lat="43.52018" lon="1.44629">
        <ele>257.36657714844</ele>
        <time>2021-03-18T21:37:25.870Z</time>
      </trkpt>
      <trkpt lat="43.52025" lon="1.44614">
        <ele>257.63052368164</ele>
        <time>2021-03-18T21:37:33.935Z</time>
      </trkpt>
      <trkpt lat="43.52032" lon="1.44605">
        <ele>257.26754760742</ele>
        <time>2021-03-18T21:37:42.002Z</time>
      </trkpt>
      <trkpt lat="43.52045" lon="1.44598">
        <ele>255.57797241211</ele>
        <time>2021-03-18T21:37:50.072Z</time>
      </trkpt>
      <trkpt lat="43.52051" lon="1.44597">
        <ele>255.53936767578</ele>
        <time>2021-03-18T21:37:58.143Z</time>
      </trkpt>
      <trkpt lat="43.52078" lon="1.44604">
        <ele>252.61488342285</ele>
        <time>2021-03-18T21:38:06.219Z</time>
      </trkpt>
      <trkpt lat="43.52167" lon="1.44643">
        <ele>246.59559631348</ele>
        <time>2021-03-18T21:38:14.312Z</time>
      </trkpt>
      <trkpt lat="43.52196" lon="1.44645">
        <ele>246.55389404297</ele>
        <time>2021-03-18T21:38:22.410Z</time>
      </trkpt>
      <trkpt lat="43.52196" lon="1.44645">
        <ele>246.55389404297</ele>
        <time>2021-03-18T21:38:30.508Z</time>
      </trkpt>
      <trkpt lat="43.52257" lon="1.44631">
        <ele>246.85284423828</ele>
        <time>2021-03-18T21:38:38.617Z</time>
      </trkpt>
      <trkpt lat="43.52297" lon="1.44583">
        <ele>240.17774963379</ele>
        <time>2021-03-18T21:38:46.736Z</time>
      </trkpt>
      <trkpt lat="43.52358" lon="1.44583">
        <ele>245.45831298828</ele>
        <time>2021-03-18T21:38:54.866Z</time>
      </trkpt>
      <trkpt lat="43.52436" lon="1.4455">
        <ele>248.67584228516</ele>
        <time>2021-03-18T21:39:03.011Z</time>
      </trkpt>
      <trkpt lat="43.52485" lon="1.44555">
        <ele>255.80030822754</ele>
        <time>2021-03-18T21:39:11.165Z</time>
      </trkpt>
      <trkpt lat="43.52507" lon="1.44552">
        <ele>258.32366943359</ele>
        <time>2021-03-18T21:39:19.323Z</time>
      </trkpt>
      <trkpt lat="43.52524" lon="1.44552">
        <ele>259.48205566406</ele>
        <time>2021-03-18T21:39:27.484Z</time>
      </trkpt>
      <trkpt lat="43.52538" lon="1.44552">
        <ele>259.8352355957</ele>
        <time>2021-03-18T21:39:35.647Z</time>
      </trkpt>
      <trkpt lat="43.52538" lon="1.44552">
        <ele>259.8352355957</ele>
        <time>2021-03-18T21:39:43.810Z</time>
      </trkpt>
      <trkpt lat="43.52605" lon="1.44543">
        <ele>260.34216308594</ele>
        <time>2021-03-18T21:39:51.986Z</time>
      </trkpt>
      <trkpt lat="43.5261" lon="1.44542">
        <ele>260.61245727539</ele>
        <time>2021-03-18T21:40:00.163Z</time>
      </trkpt>
      <trkpt lat="43.52667" lon="1.44543">
        <ele>264.21255493164</ele>
        <time>2021-03-18T21:40:08.350Z</time>
      </trkpt>
      <trkpt lat="43.52724" lon="1.44495">
        <ele>263.82705688477</ele>
        <time>2021-03-18T21:40:16.549Z</time>
      </trkpt>
      <trkpt lat="43.52795" lon="1.44324">
        <ele>262.6477355957</ele>
        <time>2021-03-18T21:40:24.774Z</time>
      </trkpt>
      <trkpt lat="43.52835" lon="1.44273">
        <ele>259.97909545898</ele>
        <time>2021-03-18T21:40:33.009Z</time>
      </trkpt>
      <trkpt lat="43.52919" lon="1.44266">
        <ele>254.26789855957</ele>
        <time>2021-03-18T21:40:41.260Z</time>
      </trkpt>
      <trkpt lat="43.52959" lon="1.44246">
        <ele>248.34826660156</ele>
        <time>2021-03-18T21:40:49.518Z</time>
      </trkpt>
      <trkpt lat="43.53007" lon="1.4419">
        <ele>243.61952209473</ele>
        <time>2021-03-18T21:40:57.788Z</time>
      </trkpt>
      <trkpt lat="43.5306" lon="1.44122">
        <ele>241.87594604492</ele>
        <time>2021-03-18T21:41:06.071Z</time>
      </trkpt>
      <trkpt lat="43.5313" lon="1.44081">
        <ele>236.18115234375</ele>
        <time>2021-03-18T21:41:14.368Z</time>
      </trkpt>
      <trkpt lat="43.53159" lon="1.44064">
        <ele>234.93794250488</ele>
        <time>2021-03-18T21:41:22.671Z</time>
      </trkpt>
      <trkpt lat="43.53272" lon="1.43972">
        <ele>229.38273620605</ele>
        <time>2021-03-18T21:41:30.997Z</time>
      </trkpt>
      <trkpt lat="43.5328" lon="1.43966">
        <ele>229.07383728027</ele>
        <time>2021-03-18T21:41:39.325Z</time>
      </trkpt>
      <trkpt lat="43.53355" lon="1.43926">
        <ele>222.09729003906</ele>
        <time>2021-03-18T21:41:47.668Z</time>
      </trkpt>
      <trkpt lat="43.53476" lon="1.43895">
        <ele>211.42718505859</ele>
        <time>2021-03-18T21:41:56.033Z</time>
      </trkpt>
      <trkpt lat="43.53476" lon="1.43895">
        <ele>211.42718505859</ele>
        <time>2021-03-18T21:42:04.398Z</time>
      </trkpt>
      <trkpt lat="43.53476" lon="1.43895">
        <ele>211.42718505859</ele>
        <time>2021-03-18T21:42:12.763Z</time>
      </trkpt>
      <trkpt lat="43.53567" lon="1.43906">
        <ele>210.30986022949</ele>
        <time>2021-03-18T21:42:21.145Z</time>
      </trkpt>
      <trkpt lat="43.53567" lon="1.43906">
        <ele>210.30986022949</ele>
        <time>2021-03-18T21:42:29.527Z</time>
      </trkpt>
      <trkpt lat="43.53579" lon="1.43908">
        <ele>210.0699005127</ele>
        <time>2021-03-18T21:42:37.911Z</time>
      </trkpt>
      <trkpt lat="43.53684" lon="1.43926">
        <ele>209.98701477051</ele>
        <time>2021-03-18T21:42:46.314Z</time>
      </trkpt>
      <trkpt lat="43.5374" lon="1.43927">
        <ele>211.55520629883</ele>
        <time>2021-03-18T21:42:54.727Z</time>
      </trkpt>
      <trkpt lat="43.5378" lon="1.43917">
        <ele>211.86325073242</ele>
        <time>2021-03-18T21:43:03.148Z</time>
      </trkpt>
      <trkpt lat="43.5387" lon="1.43847">
        <ele>202.0369720459</ele>
        <time>2021-03-18T21:43:11.588Z</time>
      </trkpt>
      <trkpt lat="43.53917" lon="1.43833">
        <ele>195.07272338867</ele>
        <time>2021-03-18T21:43:20.036Z</time>
      </trkpt>
      <trkpt lat="43.53967" lon="1.43838">
        <ele>190.42630004883</ele>
        <time>2021-03-18T21:43:28.493Z</time>
      </trkpt>
      <trkpt lat="43.53967" lon="1.43838">
        <ele>190.42538452148</ele>
        <time>2021-03-18T21:43:36.950Z</time>
      </trkpt>
      <trkpt lat="43.54064" lon="1.43848">
        <ele>181.1407623291</ele>
        <time>2021-03-18T21:43:45.425Z</time>
      </trkpt>
      <trkpt lat="43.54146" lon="1.43835">
        <ele>172.38168334961</ele>
        <time>2021-03-18T21:43:53.915Z</time>
      </trkpt>
      <trkpt lat="43.54244" lon="1.43792">
        <ele>164.7244720459</ele>
        <time>2021-03-18T21:44:02.424Z</time>
      </trkpt>
      <trkpt lat="43.54281" lon="1.43792">
        <ele>159.22277832031</ele>
        <time>2021-03-18T21:44:10.939Z</time>
      </trkpt>
      <trkpt lat="43.54324" lon="1.43806">
        <ele>152.69952392578</ele>
        <time>2021-03-18T21:44:19.463Z</time>
      </trkpt>
      <trkpt lat="43.5434" lon="1.43802">
        <ele>150.85412597656</ele>
        <time>2021-03-18T21:44:27.989Z</time>
      </trkpt>
      <trkpt lat="43.54352" lon="1.43829">
        <ele>151.54455566406</ele>
        <time>2021-03-18T21:44:36.520Z</time>
      </trkpt>
      <trkpt lat="43.54352" lon="1.43829">
        <ele>151.54515075684</ele>
        <time>2021-03-18T21:44:45.051Z</time>
      </trkpt>
      <trkpt lat="43.54373" lon="1.43849">
        <ele>152.48603820801</ele>
        <time>2021-03-18T21:44:53.586Z</time>
      </trkpt>
      <trkpt lat="43.54492" lon="1.43916">
        <ele>148.37339782715</ele>
        <time>2021-03-18T21:45:02.145Z</time>
      </trkpt>
      <trkpt lat="43.54568" lon="1.4391">
        <ele>146.4933013916</ele>
        <time>2021-03-18T21:45:10.718Z</time>
      </trkpt>
      <trkpt lat="43.54673" lon="1.43931">
        <ele>148.12127685547</ele>
        <time>2021-03-18T21:45:19.310Z</time>
      </trkpt>
      <trkpt lat="43.54844" lon="1.43927">
        <ele>153.19432067871</ele>
        <time>2021-03-18T21:45:27.933Z</time>
      </trkpt>
      <trkpt lat="43.54894" lon="1.43935">
        <ele>149.21716308594</ele>
        <time>2021-03-18T21:45:36.565Z</time>
      </trkpt>
      <trkpt lat="43.54947" lon="1.43966">
        <ele>149.60536193848</ele>
        <time>2021-03-18T21:45:45.208Z</time>
      </trkpt>
      <trkpt lat="43.54947" lon="1.43966">
        <ele>149.6047668457</ele>
        <time>2021-03-18T21:45:53.851Z</time>
      </trkpt>
      <trkpt lat="43.55004" lon="1.43983">
        <ele>156.33169555664</ele>
        <time>2021-03-18T21:46:02.504Z</time>
      </trkpt>
      <trkpt lat="43.55148" lon="1.44056">
        <ele>156.50129699707</ele>
        <time>2021-03-18T21:46:11.185Z</time>
      </trkpt>
      <trkpt lat="43.55291" lon="1.44087">
        <ele>160.0007019043</ele>
        <time>2021-03-18T21:46:19.892Z</time>
      </trkpt>
      <trkpt lat="43.55376" lon="1.44101">
        <ele>158.50994873047</ele>
        <time>2021-03-18T21:46:28.615Z</time>
      </trkpt>
      <trkpt lat="43.55531" lon="1.44098">
        <ele>153.28150939941</ele>
        <time>2021-03-18T21:46:37.366Z</time>
      </trkpt>
      <trkpt lat="43.5564" lon="1.44114">
        <ele>154.31581115723</ele>
        <time>2021-03-18T21:46:46.137Z</time>
      </trkpt>
      <trkpt lat="43.55747" lon="1.44123">
        <ele>158.81683349609</ele>
        <time>2021-03-18T21:46:54.927Z</time>
      </trkpt>
      <trkpt lat="43.55781" lon="1.44108">
        <ele>160.84782409668</ele>
        <time>2021-03-18T21:47:03.724Z</time>
      </trkpt>
      <trkpt lat="43.55814" lon="1.44075">
        <ele>160.32020568848</ele>
        <time>2021-03-18T21:47:12.528Z</time>
      </trkpt>
      <trkpt lat="43.55857" lon="1.44034">
        <ele>156.06996154785</ele>
        <time>2021-03-18T21:47:21.342Z</time>
      </trkpt>
      <trkpt lat="43.5593" lon="1.43997">
        <ele>150.93391418457</ele>
        <time>2021-03-18T21:47:30.170Z</time>
      </trkpt>
      <trkpt lat="43.56052" lon="1.43998">
        <ele>145.99325561523</ele>
        <time>2021-03-18T21:47:39.020Z</time>
      </trkpt>
      <trkpt lat="43.5626" lon="1.43945">
        <ele>147.68812561035</ele>
        <time>2021-03-18T21:47:47.909Z</time>
      </trkpt>
      <trkpt lat="43.56328" lon="1.43935">
        <ele>145.3701171875</ele>
        <time>2021-03-18T21:47:56.810Z</time>
      </trkpt>
      <trkpt lat="43.56359" lon="1.43937">
        <ele>145.24183654785</ele>
        <time>2021-03-18T21:48:05.717Z</time>
      </trkpt>
      <trkpt lat="43.56379" lon="1.43944">
        <ele>147.89114379883</ele>
        <time>2021-03-18T21:48:14.628Z</time>
      </trkpt>
      <trkpt lat="43.56379" lon="1.43944">
        <ele>147.88842773438</ele>
        <time>2021-03-18T21:48:23.539Z</time>
      </trkpt>
      <trkpt lat="43.56391" lon="1.43949">
        <ele>149.65116882324</ele>
        <time>2021-03-18T21:48:32.452Z</time>
      </trkpt>
      <trkpt lat="43.56479" lon="1.43979">
        <ele>152.10865783691</ele>
        <time>2021-03-18T21:48:41.381Z</time>
      </trkpt>
      <trkpt lat="43.56601" lon="1.43984">
        <ele>150.98257446289</ele>
        <time>2021-03-18T21:48:50.332Z</time>
      </trkpt>
      <trkpt lat="43.56601" lon="1.43984">
        <ele>150.98257446289</ele>
        <time>2021-03-18T21:48:59.283Z</time>
      </trkpt>
      <trkpt lat="43.56709" lon="1.43986">
        <ele>152.84257507324</ele>
        <time>2021-03-18T21:49:08.254Z</time>
      </trkpt>
      <trkpt lat="43.57058" lon="1.4392">
        <ele>135.44105529785</ele>
        <time>2021-03-18T21:49:17.289Z</time>
      </trkpt>
      <trkpt lat="43.57058" lon="1.4392">
        <ele>135.44075012207</ele>
        <time>2021-03-18T21:49:26.324Z</time>
      </trkpt>
      <trkpt lat="43.571" lon="1.43909">
        <ele>141.60925292969</ele>
        <time>2021-03-18T21:49:35.367Z</time>
      </trkpt>
      <trkpt lat="43.57138" lon="1.43904">
        <ele>139.58039855957</ele>
        <time>2021-03-18T21:49:44.417Z</time>
      </trkpt>
      <trkpt lat="43.57182" lon="1.43881">
        <ele>142.40716552734</ele>
        <time>2021-03-18T21:49:53.476Z</time>
      </trkpt>
      <trkpt lat="43.57205" lon="1.43864">
        <ele>144.87692260742</ele>
        <time>2021-03-18T21:50:02.539Z</time>
      </trkpt>
      <trkpt lat="43.57252" lon="1.43814">
        <ele>144.69459533691</ele>
        <time>2021-03-18T21:50:11.613Z</time>
      </trkpt>
      <trkpt lat="43.57257" lon="1.43809">
        <ele>144.2106628418</ele>
        <time>2021-03-18T21:50:20.688Z</time>
      </trkpt>
      <trkpt lat="43.57373" lon="1.437">
        <ele>141</ele>
        <time>2021-03-18T21:50:29.789Z</time>
      </trkpt>
      <trkpt lat="43.574" lon="1.43696">
        <ele>141.95877075195</ele>
        <time>2021-03-18T21:50:38.895Z</time>
      </trkpt>
      <trkpt lat="43.57473" lon="1.43736">
        <ele>143.14334106445</ele>
        <time>2021-03-18T21:50:48.015Z</time>
      </trkpt>
      <trkpt lat="43.5748" lon="1.4374">
        <ele>144.02172851562</ele>
        <time>2021-03-18T21:50:57.136Z</time>
      </trkpt>
      <trkpt lat="43.57497" lon="1.43747">
        <ele>146.4157409668</ele>
        <time>2021-03-18T21:51:06.261Z</time>
      </trkpt>
      <trkpt lat="43.57511" lon="1.43739">
        <ele>147.31959533691</ele>
        <time>2021-03-18T21:51:15.388Z</time>
      </trkpt>
      <trkpt lat="43.57545" lon="1.43653">
        <ele>144.11968994141</ele>
        <time>2021-03-18T21:51:24.528Z</time>
      </trkpt>
      <trkpt lat="43.57558" lon="1.4364">
        <ele>143.19297790527</ele>
        <time>2021-03-18T21:51:33.671Z</time>
      </trkpt>
      <trkpt lat="43.57623" lon="1.43628">
        <ele>143.32063293457</ele>
        <time>2021-03-18T21:51:42.826Z</time>
      </trkpt>
      <trkpt lat="43.57659" lon="1.43633">
        <ele>141.93048095703</ele>
        <time>2021-03-18T21:51:51.988Z</time>
      </trkpt>
      <trkpt lat="43.57676" lon="1.43634">
        <ele>142.44062805176</ele>
        <time>2021-03-18T21:52:01.153Z</time>
      </trkpt>
      <trkpt lat="43.57676" lon="1.43634">
        <ele>142.4397277832</ele>
        <time>2021-03-18T21:52:10.318Z</time>
      </trkpt>
      <trkpt lat="43.57723" lon="1.43641">
        <ele>146.07752990723</ele>
        <time>2021-03-18T21:52:19.491Z</time>
      </trkpt>
      <trkpt lat="43.57737" lon="1.43643">
        <ele>144.66770935059</ele>
        <time>2021-03-18T21:52:28.667Z</time>
      </trkpt>
      <trkpt lat="43.57749" lon="1.43644">
        <ele>143.392578125</ele>
        <time>2021-03-18T21:52:37.845Z</time>
      </trkpt>
      <trkpt lat="43.57771" lon="1.43649">
        <ele>140.51594543457</ele>
        <time>2021-03-18T21:52:47.027Z</time>
      </trkpt>
      <trkpt lat="43.57871" lon="1.43675">
        <ele>140.64175415039</ele>
        <time>2021-03-18T21:52:56.228Z</time>
      </trkpt>
      <trkpt lat="43.57883" lon="1.43681">
        <ele>141.17282104492</ele>
        <time>2021-03-18T21:53:05.431Z</time>
      </trkpt>
      <trkpt lat="43.57883" lon="1.43681">
        <ele>141.17282104492</ele>
        <time>2021-03-18T21:53:14.634Z</time>
      </trkpt>
      <trkpt lat="43.57943" lon="1.43711">
        <ele>140.14219665527</ele>
        <time>2021-03-18T21:53:23.849Z</time>
      </trkpt>
      <trkpt lat="43.5802" lon="1.43762">
        <ele>140.94537353516</ele>
        <time>2021-03-18T21:53:33.079Z</time>
      </trkpt>
      <trkpt lat="43.58027" lon="1.43767">
        <ele>140.05726623535</ele>
        <time>2021-03-18T21:53:42.311Z</time>
      </trkpt>
      <trkpt lat="43.58027" lon="1.43767">
        <ele>140.05847167969</ele>
        <time>2021-03-18T21:53:51.543Z</time>
      </trkpt>
      <trkpt lat="43.58119" lon="1.4384">
        <ele>145.80934143066</ele>
        <time>2021-03-18T21:54:00.794Z</time>
      </trkpt>
      <trkpt lat="43.58127" lon="1.43846">
        <ele>145.50044250488</ele>
        <time>2021-03-18T21:54:10.047Z</time>
      </trkpt>
      <trkpt lat="43.58127" lon="1.43846">
        <ele>145.50074768066</ele>
        <time>2021-03-18T21:54:19.300Z</time>
      </trkpt>
      <trkpt lat="43.58246" lon="1.43914">
        <ele>145.35453796387</ele>
        <time>2021-03-18T21:54:28.576Z</time>
      </trkpt>
      <trkpt lat="43.58246" lon="1.43914">
        <ele>145.35513305664</ele>
        <time>2021-03-18T21:54:37.852Z</time>
      </trkpt>
      <trkpt lat="43.58274" lon="1.43924">
        <ele>145.65791320801</ele>
        <time>2021-03-18T21:54:47.133Z</time>
      </trkpt>
      <trkpt lat="43.58398" lon="1.43957">
        <ele>143.03739929199</ele>
        <time>2021-03-18T21:54:56.437Z</time>
      </trkpt>
      <trkpt lat="43.58487" lon="1.43967">
        <ele>142.87767028809</ele>
        <time>2021-03-18T21:55:05.758Z</time>
      </trkpt>
      <trkpt lat="43.58603" lon="1.43953">
        <ele>142.3715057373</ele>
        <time>2021-03-18T21:55:15.100Z</time>
      </trkpt>
      <trkpt lat="43.58603" lon="1.43953">
        <ele>142.3715057373</ele>
        <time>2021-03-18T21:55:24.442Z</time>
      </trkpt>
      <trkpt lat="43.58648" lon="1.43947">
        <ele>141.50657653809</ele>
        <time>2021-03-18T21:55:33.792Z</time>
      </trkpt>
      <trkpt lat="43.58648" lon="1.43947">
        <ele>141.5062713623</ele>
        <time>2021-03-18T21:55:43.142Z</time>
      </trkpt>
      <trkpt lat="43.58691" lon="1.43941">
        <ele>142.66465759277</ele>
        <time>2021-03-18T21:55:52.500Z</time>
      </trkpt>
      <trkpt lat="43.58746" lon="1.43947">
        <ele>141.08116149902</ele>
        <time>2021-03-18T21:56:01.868Z</time>
      </trkpt>
      <trkpt lat="43.588" lon="1.43965">
        <ele>138.49407958984</ele>
        <time>2021-03-18T21:56:11.246Z</time>
      </trkpt>
      <trkpt lat="43.58835" lon="1.43986">
        <ele>137.01580810547</ele>
        <time>2021-03-18T21:56:20.631Z</time>
      </trkpt>
      <trkpt lat="43.58844" lon="1.43993">
        <ele>137.2931060791</ele>
        <time>2021-03-18T21:56:30.018Z</time>
      </trkpt>
      <trkpt lat="43.58857" lon="1.44005">
        <ele>137.75645446777</ele>
        <time>2021-03-18T21:56:39.408Z</time>
      </trkpt>
      <trkpt lat="43.58857" lon="1.44005">
        <ele>137.75614929199</ele>
        <time>2021-03-18T21:56:48.798Z</time>
      </trkpt>
      <trkpt lat="43.58958" lon="1.44089">
        <ele>141.27537536621</ele>
        <time>2021-03-18T21:56:58.209Z</time>
      </trkpt>
      <trkpt lat="43.59004" lon="1.44115">
        <ele>141.10919189453</ele>
        <time>2021-03-18T21:57:07.629Z</time>
      </trkpt>
      <trkpt lat="43.59004" lon="1.44115">
        <ele>141.1097869873</ele>
        <time>2021-03-18T21:57:17.049Z</time>
      </trkpt>
      <trkpt lat="43.5901" lon="1.44117">
        <ele>140.72305297852</ele>
        <time>2021-03-18T21:57:26.470Z</time>
      </trkpt>
      <trkpt lat="43.59021" lon="1.44122">
        <ele>140.33573913574</ele>
        <time>2021-03-18T21:57:35.893Z</time>
      </trkpt>
      <trkpt lat="43.59101" lon="1.44137">
        <ele>138.41441345215</ele>
        <time>2021-03-18T21:57:45.331Z</time>
      </trkpt>
      <trkpt lat="43.59126" lon="1.44142">
        <ele>138</ele>
        <time>2021-03-18T21:57:54.774Z</time>
      </trkpt>
      <trkpt lat="43.59139" lon="1.44146">
        <ele>138</ele>
        <time>2021-03-18T21:58:04.219Z</time>
      </trkpt>
      <trkpt lat="43.59148" lon="1.4415">
        <ele>138</ele>
        <time>2021-03-18T21:58:13.666Z</time>
      </trkpt>
      <trkpt lat="43.59151" lon="1.4416">
        <ele>138</ele>
        <time>2021-03-18T21:58:23.114Z</time>
      </trkpt>
      <trkpt lat="43.59159" lon="1.4416">
        <ele>138</ele>
        <time>2021-03-18T21:58:32.564Z</time>
      </trkpt>
      <trkpt lat="43.59165" lon="1.44176">
        <ele>138.40303039551</ele>
        <time>2021-03-18T21:58:42.016Z</time>
      </trkpt>
      <trkpt lat="43.59165" lon="1.44176">
        <ele>138.40303039551</ele>
        <time>2021-03-18T21:58:51.468Z</time>
      </trkpt>
      <trkpt lat="43.5918" lon="1.44206">
        <ele>140.2421875</ele>
        <time>2021-03-18T21:59:00.925Z</time>
      </trkpt>
      <trkpt lat="43.59188" lon="1.44218">
        <ele>141.28413391113</ele>
        <time>2021-03-18T21:59:10.384Z</time>
      </trkpt>
      <trkpt lat="43.59193" lon="1.44223">
        <ele>141.6847076416</ele>
        <time>2021-03-18T21:59:19.844Z</time>
      </trkpt>
      <trkpt lat="43.59193" lon="1.44223">
        <ele>141.68409729004</ele>
        <time>2021-03-18T21:59:29.304Z</time>
      </trkpt>
      <trkpt lat="43.59199" lon="1.44227">
        <ele>142.07373046875</ele>
        <time>2021-03-18T21:59:38.765Z</time>
      </trkpt>
      <trkpt lat="43.59201" lon="1.44234">
        <ele>142.1509552002</ele>
        <time>2021-03-18T21:59:48.227Z</time>
      </trkpt>
      <trkpt lat="43.5921" lon="1.44246">
        <ele>142.45985412598</ele>
        <time>2021-03-18T21:59:57.692Z</time>
      </trkpt>
      <trkpt lat="43.59217" lon="1.44269">
        <ele>142.73014831543</ele>
        <time>2021-03-18T22:00:07.160Z</time>
      </trkpt>
      <trkpt lat="43.59257" lon="1.4438">
        <ele>145</ele>
        <time>2021-03-18T22:00:16.644Z</time>
      </trkpt>
      <trkpt lat="43.59257" lon="1.4438">
        <ele>145</ele>
        <time>2021-03-18T22:00:26.128Z</time>
      </trkpt>
      <trkpt lat="43.59276" lon="1.44436">
        <ele>144.39842224121</ele>
        <time>2021-03-18T22:00:35.621Z</time>
      </trkpt>
      <trkpt lat="43.59276" lon="1.44436">
        <ele>144.39872741699</ele>
        <time>2021-03-18T22:00:45.114Z</time>
      </trkpt>
    </trkseg>
  </trk>
</gpx>